<?xml version='1.0' encoding='UTF-8'?><gpx version="1.1" creator="JPX - https://github.com/jenetics/jpx" xmlns="http://www.topografix.com/GPX/1/1"><trk><trkseg><trkpt lat="49.29291439112484" lon="-0.06627068810132164"><ele>31.999999999999996</ele><time>2026-04-05T13:25:59.997Z</time></trkpt><trkpt lat="49.29284244610448" lon="-0.06632980856520511"><ele>32.0</ele><time>2026-04-05T13:26:05.998Z</time></trkpt><trkpt lat="49.29279662097233" lon="-0.06639600801271352"><ele>32.0</ele><time>2026-04-05T13:26:08.999Z</time></trkpt><trkpt lat="49.29274928711321" lon="-0.066482044281222"><ele>32.0</ele><time>2026-04-05T13:26:11.999Z</time></trkpt><trkpt lat="49.29271260930786" lon="-0.06659771231497437"><ele>31.999999999999996</ele><time>2026-04-05T13:26:14.999Z</time></trkpt><trkpt lat="49.29272809297857" lon="-0.06671963470629469"><ele>32.0</ele><time>2026-04-05T13:26:18Z</time></trkpt><trkpt lat="49.292764680801824" lon="-0.06683961478033411"><ele>31.666666666666664</ele><time>2026-04-05T13:26:21Z</time></trkpt><trkpt lat="49.29279057450283" lon="-0.06697594840442733"><ele>31.333333333333332</ele><time>2026-04-05T13:26:24Z</time></trkpt><trkpt lat="49.292819402070165" lon="-0.06708115177723335"><ele>31.0</ele><time>2026-04-05T13:26:26Z</time></trkpt><trkpt lat="49.292831019711834" lon="-0.06717855092395192"><ele>30.666666666666664</ele><time>2026-04-05T13:26:28Z</time></trkpt><trkpt lat="49.29283107303425" lon="-0.06729004621185503"><ele>30.333333333333332</ele><time>2026-04-05T13:26:31Z</time></trkpt><trkpt lat="49.29280666326204" lon="-0.06739886507791043"><ele>30.0</ele><time>2026-04-05T13:26:34Z</time></trkpt><trkpt lat="49.2928355301038" lon="-0.0675302422321314"><ele>30.0</ele><time>2026-04-05T13:26:37Z</time></trkpt><trkpt lat="49.29285545107524" lon="-0.06767005109937879"><ele>30.0</ele><time>2026-04-05T13:26:40Z</time></trkpt><trkpt lat="49.29289801909719" lon="-0.06778689994615325"><ele>30.0</ele><time>2026-04-05T13:26:43Z</time></trkpt><trkpt lat="49.29295595647999" lon="-0.06789607790051322"><ele>30.0</ele><time>2026-04-05T13:26:45Z</time></trkpt><trkpt lat="49.293013979140525" lon="-0.067996804092267"><ele>30.0</ele><time>2026-04-05T13:26:47.001Z</time></trkpt><trkpt lat="49.29309830410151" lon="-0.0680930882429614"><ele>28.8</ele><time>2026-04-05T13:26:50.001Z</time></trkpt><trkpt lat="49.29316129692503" lon="-0.0681692773667401"><ele>27.6</ele><time>2026-04-05T13:26:52.001Z</time></trkpt><trkpt lat="49.293320329786035" lon="-0.06820592684445428"><ele>26.4</ele><time>2026-04-05T13:26:57.001Z</time></trkpt><trkpt lat="49.293396028137295" lon="-0.06825593094774707"><ele>25.2</ele><time>2026-04-05T13:26:59.001Z</time></trkpt><trkpt lat="49.293462439922294" lon="-0.06826812292629711"><ele>24.0</ele><time>2026-04-05T13:27:02.001Z</time></trkpt><trkpt lat="49.293554144421506" lon="-0.06823097210732836"><ele>24.0</ele><time>2026-04-05T13:27:05.001Z</time></trkpt><trkpt lat="49.29362803788148" lon="-0.0682104007162474"><ele>24.0</ele><time>2026-04-05T13:27:07.001Z</time></trkpt><trkpt lat="49.293680831559364" lon="-0.06814813366013389"><ele>24.0</ele><time>2026-04-05T13:27:10.001Z</time></trkpt><trkpt lat="49.293929306400244" lon="-0.06814573567037265"><ele>24.0</ele><time>2026-04-05T13:27:22.001Z</time></trkpt><trkpt lat="49.29404401477512" lon="-0.06819572086628323"><ele>23.5</ele><time>2026-04-05T13:27:37.001Z</time></trkpt><trkpt lat="49.29410958941775" lon="-0.06819629206113106"><ele>23.0</ele><time>2026-04-05T13:27:40.001Z</time></trkpt><trkpt lat="49.29415307415324" lon="-0.06812645403372208"><ele>22.5</ele><time>2026-04-05T13:27:45.001Z</time></trkpt><trkpt lat="49.29416477582102" lon="-0.06802857380809782"><ele>22.0</ele><time>2026-04-05T13:27:48.001Z</time></trkpt><trkpt lat="49.294216056446956" lon="-0.06787830380557575"><ele>21.5</ele><time>2026-04-05T13:27:51.001Z</time></trkpt><trkpt lat="49.29426881798386" lon="-0.06775701380485455"><ele>21.0</ele><time>2026-04-05T13:27:53.001Z</time></trkpt><trkpt lat="49.2942992209138" lon="-0.06760101742889851"><ele>21.0</ele><time>2026-04-05T13:27:55.001Z</time></trkpt><trkpt lat="49.294323945178505" lon="-0.0675087140330821"><ele>21.0</ele><time>2026-04-05T13:27:57.001Z</time></trkpt><trkpt lat="49.29436962895662" lon="-0.06737451375332279"><ele>21.0</ele><time>2026-04-05T13:28:00.001Z</time></trkpt><trkpt lat="49.294407861283524" lon="-0.06729014342912457"><ele>21.0</ele><time>2026-04-05T13:28:02.001Z</time></trkpt><trkpt lat="49.29446332810336" lon="-0.06718192094993382"><ele>21.0</ele><time>2026-04-05T13:28:04.001Z</time></trkpt><trkpt lat="49.29451366675877" lon="-0.06707918231362973"><ele>21.0</ele><time>2026-04-05T13:28:06Z</time></trkpt><trkpt lat="49.29455725308778" lon="-0.06698731692093383"><ele>21.0</ele><time>2026-04-05T13:28:08Z</time></trkpt><trkpt lat="49.294612442397316" lon="-0.06693073648894457"><ele>21.0</ele><time>2026-04-05T13:28:10Z</time></trkpt><trkpt lat="49.29469186905816" lon="-0.06695288054604832"><ele>21.0</ele><time>2026-04-05T13:28:12Z</time></trkpt><trkpt lat="49.294734380457456" lon="-0.06711398828365232"><ele>21.0</ele><time>2026-04-05T13:28:15Z</time></trkpt><trkpt lat="49.29473276384931" lon="-0.06729587365914602"><ele>21.0</ele><time>2026-04-05T13:28:17Z</time></trkpt><trkpt lat="49.29474990354508" lon="-0.06747615694369113"><ele>20.666666666666668</ele><time>2026-04-05T13:28:19Z</time></trkpt><trkpt lat="49.29477333352798" lon="-0.06759050501601685"><ele>20.333333333333332</ele><time>2026-04-05T13:28:21Z</time></trkpt><trkpt lat="49.29478554641127" lon="-0.06770566098068206"><ele>20.0</ele><time>2026-04-05T13:28:23Z</time></trkpt><trkpt lat="49.29480285154504" lon="-0.0678630231074209"><ele>19.666666666666664</ele><time>2026-04-05T13:28:25Z</time></trkpt><trkpt lat="49.29484052028905" lon="-0.06800081261808964"><ele>19.333333333333332</ele><time>2026-04-05T13:28:27Z</time></trkpt><trkpt lat="49.294866366033865" lon="-0.06811035764637134"><ele>19.0</ele><time>2026-04-05T13:28:29Z</time></trkpt><trkpt lat="49.29490146551628" lon="-0.06823332007184671"><ele>18.8</ele><time>2026-04-05T13:28:31Z</time></trkpt><trkpt lat="49.29495010371961" lon="-0.06835231485811812"><ele>18.599999999999998</ele><time>2026-04-05T13:28:33Z</time></trkpt><trkpt lat="49.29498690361604" lon="-0.068477720538046"><ele>18.4</ele><time>2026-04-05T13:28:35Z</time></trkpt><trkpt lat="49.295028143114784" lon="-0.06860624410027634"><ele>18.2</ele><time>2026-04-05T13:28:37Z</time></trkpt><trkpt lat="49.295083782529446" lon="-0.06870875122728051"><ele>18.0</ele><time>2026-04-05T13:28:39Z</time></trkpt><trkpt lat="49.29513052376812" lon="-0.0688325857400684"><ele>18.0</ele><time>2026-04-05T13:28:41Z</time></trkpt><trkpt lat="49.29519001034498" lon="-0.06894893234072848"><ele>18.0</ele><time>2026-04-05T13:28:43Z</time></trkpt><trkpt lat="49.29524614494012" lon="-0.06907328652756277"><ele>18.0</ele><time>2026-04-05T13:28:45Z</time></trkpt><trkpt lat="49.295297031932996" lon="-0.06917573718584137"><ele>18.0</ele><time>2026-04-05T13:28:47Z</time></trkpt><trkpt lat="49.29536182566652" lon="-0.06927185614943773"><ele>18.0</ele><time>2026-04-05T13:28:49Z</time></trkpt><trkpt lat="49.29542072270197" lon="-0.06936332991851246"><ele>18.0</ele><time>2026-04-05T13:28:51Z</time></trkpt><trkpt lat="49.29548107453478" lon="-0.06947385696517175"><ele>18.0</ele><time>2026-04-05T13:28:53Z</time></trkpt><trkpt lat="49.29555758457229" lon="-0.06958348914055548"><ele>18.0</ele><time>2026-04-05T13:28:55Z</time></trkpt><trkpt lat="49.29562823666609" lon="-0.0696920247120282"><ele>18.0</ele><time>2026-04-05T13:28:57Z</time></trkpt><trkpt lat="49.29570174975906" lon="-0.06979863344290614"><ele>18.0</ele><time>2026-04-05T13:28:59Z</time></trkpt><trkpt lat="49.295760840237726" lon="-0.06988140282234996"><ele>17.6</ele><time>2026-04-05T13:29:01Z</time></trkpt><trkpt lat="49.29583777076432" lon="-0.06996621082469641"><ele>17.200000000000003</ele><time>2026-04-05T13:29:03Z</time></trkpt><trkpt lat="49.295910558143156" lon="-0.07006512412922526"><ele>16.8</ele><time>2026-04-05T13:29:05Z</time></trkpt><trkpt lat="49.295987376777745" lon="-0.07016202159425884"><ele>16.400000000000002</ele><time>2026-04-05T13:29:07Z</time></trkpt><trkpt lat="49.296059989677175" lon="-0.07025021607526295"><ele>16.0</ele><time>2026-04-05T13:29:09Z</time></trkpt><trkpt lat="49.29613550170151" lon="-0.07033201044272804"><ele>15.999999999999998</ele><time>2026-04-05T13:29:11Z</time></trkpt><trkpt lat="49.29621303690982" lon="-0.07041549299739717"><ele>16.0</ele><time>2026-04-05T13:29:13Z</time></trkpt><trkpt lat="49.2962673608834" lon="-0.07050370988957964"><ele>16.0</ele><time>2026-04-05T13:29:18Z</time></trkpt><trkpt lat="49.29630276763217" lon="-0.07059894994531546"><ele>16.0</ele><time>2026-04-05T13:29:21Z</time></trkpt><trkpt lat="49.29640449790581" lon="-0.07071419938988795"><ele>15.999999999999998</ele><time>2026-04-05T13:29:23Z</time></trkpt><trkpt lat="49.29646732979774" lon="-0.07077258460296185"><ele>16.0</ele><time>2026-04-05T13:29:24Z</time></trkpt><trkpt lat="49.29652618656643" lon="-0.07084115286986813"><ele>15.8</ele><time>2026-04-05T13:29:25Z</time></trkpt><trkpt lat="49.29658946778626" lon="-0.07088771415708363"><ele>15.600000000000001</ele><time>2026-04-05T13:29:26Z</time></trkpt><trkpt lat="49.296644614695545" lon="-0.07093507184487503"><ele>15.4</ele><time>2026-04-05T13:29:27Z</time></trkpt><trkpt lat="49.296730061285885" lon="-0.07103481655367898"><ele>15.2</ele><time>2026-04-05T13:29:29Z</time></trkpt><trkpt lat="49.296816637443094" lon="-0.07113708379696364"><ele>15.0</ele><time>2026-04-05T13:29:31Z</time></trkpt><trkpt lat="49.29690950762057" lon="-0.07124295266748551"><ele>15.0</ele><time>2026-04-05T13:29:33Z</time></trkpt><trkpt lat="49.29699592836669" lon="-0.07133385653819914"><ele>15.0</ele><time>2026-04-05T13:29:35Z</time></trkpt><trkpt lat="49.29707622762059" lon="-0.07142013011048634"><ele>15.0</ele><time>2026-04-05T13:29:37Z</time></trkpt><trkpt lat="49.29715327231242" lon="-0.07149821579670565"><ele>15.0</ele><time>2026-04-05T13:29:39Z</time></trkpt><trkpt lat="49.297235606474025" lon="-0.07155489258721148"><ele>15.0</ele><time>2026-04-05T13:29:41Z</time></trkpt><trkpt lat="49.297339192275864" lon="-0.07160476929904849"><ele>15.0</ele><time>2026-04-05T13:29:43Z</time></trkpt><trkpt lat="49.297430046780406" lon="-0.07164326338498343"><ele>15.0</ele><time>2026-04-05T13:29:45Z</time></trkpt><trkpt lat="49.29751755406081" lon="-0.07168062900361727"><ele>15.0</ele><time>2026-04-05T13:29:47Z</time></trkpt><trkpt lat="49.29761444973045" lon="-0.07170076477133723"><ele>15.0</ele><time>2026-04-05T13:29:49.001Z</time></trkpt><trkpt lat="49.297677034631285" lon="-0.07172396053264604"><ele>15.0</ele><time>2026-04-05T13:29:50.001Z</time></trkpt><trkpt lat="49.297738689132366" lon="-0.07175073598831654"><ele>15.0</ele><time>2026-04-05T13:29:51.001Z</time></trkpt><trkpt lat="49.29783718816718" lon="-0.07181681117067612"><ele>15.0</ele><time>2026-04-05T13:29:53.001Z</time></trkpt><trkpt lat="49.29790975194471" lon="-0.07188751799395363"><ele>15.0</ele><time>2026-04-05T13:29:55.001Z</time></trkpt><trkpt lat="49.297982171967355" lon="-0.07196377690288203"><ele>15.0</ele><time>2026-04-05T13:29:57Z</time></trkpt><trkpt lat="49.298059808111546" lon="-0.07203725282974623"><ele>15.0</ele><time>2026-04-05T13:29:59Z</time></trkpt><trkpt lat="49.298133274769214" lon="-0.0721182839330804"><ele>15.0</ele><time>2026-04-05T13:30:01Z</time></trkpt><trkpt lat="49.29819406703742" lon="-0.07218531728667521"><ele>15.0</ele><time>2026-04-05T13:30:03Z</time></trkpt><trkpt lat="49.298265106613925" lon="-0.07224283871780514"><ele>15.166666666666666</ele><time>2026-04-05T13:30:05Z</time></trkpt><trkpt lat="49.298352617170075" lon="-0.07228143083951517"><ele>15.333333333333332</ele><time>2026-04-05T13:30:07Z</time></trkpt><trkpt lat="49.2984097292726" lon="-0.0723843276531908"><ele>15.5</ele><time>2026-04-05T13:30:09Z</time></trkpt><trkpt lat="49.29848435354126" lon="-0.07244229048712318"><ele>15.666666666666666</ele><time>2026-04-05T13:30:11Z</time></trkpt><trkpt lat="49.298544595056796" lon="-0.07252769955363089"><ele>15.833333333333332</ele><time>2026-04-05T13:30:13Z</time></trkpt><trkpt lat="49.298605878453536" lon="-0.0726033719577179"><ele>16.0</ele><time>2026-04-05T13:30:15Z</time></trkpt><trkpt lat="49.29867957444398" lon="-0.07271097630854435"><ele>16.0</ele><time>2026-04-05T13:30:17Z</time></trkpt><trkpt lat="49.298743594354235" lon="-0.07274928230664819"><ele>15.999999999999998</ele><time>2026-04-05T13:30:22Z</time></trkpt><trkpt lat="49.29879857562632" lon="-0.07284678609374363"><ele>16.0</ele><time>2026-04-05T13:30:25Z</time></trkpt><trkpt lat="49.29886231950767" lon="-0.07286052344901554"><ele>16.0</ele><time>2026-04-05T13:30:27Z</time></trkpt><trkpt lat="49.298923827565595" lon="-0.07291784395716569"><ele>15.999999999999998</ele><time>2026-04-05T13:30:29Z</time></trkpt><trkpt lat="49.298954428334305" lon="-0.07301233131351285"><ele>16.0</ele><time>2026-04-05T13:30:31Z</time></trkpt><trkpt lat="49.299023054146765" lon="-0.07302866147052348"><ele>16.0</ele><time>2026-04-05T13:30:33Z</time></trkpt><trkpt lat="49.299109220919185" lon="-0.07312735602234445"><ele>15.999999999999998</ele><time>2026-04-05T13:30:35Z</time></trkpt><trkpt lat="49.299145974546704" lon="-0.07322444840275333"><ele>16.0</ele><time>2026-04-05T13:30:36Z</time></trkpt><trkpt lat="49.29922211522003" lon="-0.07333721569301777"><ele>16.0</ele><time>2026-04-05T13:30:39Z</time></trkpt><trkpt lat="49.2992447389092" lon="-0.07344388213327119"><ele>16.0</ele><time>2026-04-05T13:30:41Z</time></trkpt><trkpt lat="49.29928737263359" lon="-0.07354613419614384"><ele>15.999999999999998</ele><time>2026-04-05T13:30:42Z</time></trkpt><trkpt lat="49.2993512451308" lon="-0.07369248559134792"><ele>16.0</ele><time>2026-04-05T13:30:44Z</time></trkpt><trkpt lat="49.299408000581536" lon="-0.07384967188150218"><ele>16.0</ele><time>2026-04-05T13:30:46Z</time></trkpt><trkpt lat="49.299443845726614" lon="-0.0739615623428381"><ele>16.0</ele><time>2026-04-05T13:30:48Z</time></trkpt><trkpt lat="49.29950771651691" lon="-0.07409476247305576"><ele>16.0</ele><time>2026-04-05T13:30:50Z</time></trkpt><trkpt lat="49.29956533837665" lon="-0.07420560013415495"><ele>16.0</ele><time>2026-04-05T13:30:52Z</time></trkpt><trkpt lat="49.299636241479625" lon="-0.07429840657935073"><ele>16.0</ele><time>2026-04-05T13:30:54Z</time></trkpt><trkpt lat="49.29971841228074" lon="-0.07435626438895686"><ele>16.2</ele><time>2026-04-05T13:30:56Z</time></trkpt><trkpt lat="49.29983370126049" lon="-0.07437496019560891"><ele>16.400000000000002</ele><time>2026-04-05T13:30:58Z</time></trkpt><trkpt lat="49.299939803971135" lon="-0.07438808400884131"><ele>16.6</ele><time>2026-04-05T13:31:00Z</time></trkpt><trkpt lat="49.30001290007744" lon="-0.0743705139975713"><ele>16.8</ele><time>2026-04-05T13:31:02Z</time></trkpt><trkpt lat="49.30007434470757" lon="-0.07431443587595372"><ele>17.0</ele><time>2026-04-05T13:31:06Z</time></trkpt><trkpt lat="49.30018350926503" lon="-0.07426997617314997"><ele>17.0</ele><time>2026-04-05T13:31:10Z</time></trkpt><trkpt lat="49.300275994624684" lon="-0.0742382338397282"><ele>17.0</ele><time>2026-04-05T13:31:14Z</time></trkpt><trkpt lat="49.300361042788" lon="-0.07420403581911299"><ele>17.0</ele><time>2026-04-05T13:31:17Z</time></trkpt><trkpt lat="49.30042692087298" lon="-0.07415022274964253"><ele>17.0</ele><time>2026-04-05T13:31:19Z</time></trkpt><trkpt lat="49.30049245808474" lon="-0.07417213380431807"><ele>17.0</ele><time>2026-04-05T13:31:21Z</time></trkpt><trkpt lat="49.30054441400335" lon="-0.07429298078714724"><ele>17.0</ele><time>2026-04-05T13:31:23Z</time></trkpt><trkpt lat="49.30057336692161" lon="-0.07442520242505898"><ele>17.0</ele><time>2026-04-05T13:31:25Z</time></trkpt><trkpt lat="49.300598664897215" lon="-0.07457210242095128"><ele>17.0</ele><time>2026-04-05T13:31:27Z</time></trkpt><trkpt lat="49.30061098069986" lon="-0.0747048924507197"><ele>17.0</ele><time>2026-04-05T13:31:29Z</time></trkpt><trkpt lat="49.30062910640281" lon="-0.07480914793713876"><ele>17.0</ele><time>2026-04-05T13:31:31Z</time></trkpt><trkpt lat="49.30064834947977" lon="-0.07494467436895148"><ele>17.0</ele><time>2026-04-05T13:31:34Z</time></trkpt><trkpt lat="49.3006653112674" lon="-0.07504451238647593"><ele>17.0</ele><time>2026-04-05T13:31:36Z</time></trkpt><trkpt lat="49.300696868015976" lon="-0.0751337480621469"><ele>16.71428571428571</ele><time>2026-04-05T13:31:38Z</time></trkpt><trkpt lat="49.300746404615786" lon="-0.07519608328346204"><ele>16.428571428571427</ele><time>2026-04-05T13:31:40Z</time></trkpt><trkpt lat="49.30076538642925" lon="-0.075292238181944"><ele>16.142857142857142</ele><time>2026-04-05T13:31:42Z</time></trkpt><trkpt lat="49.30069386227262" lon="-0.07535943061392594"><ele>15.857142857142856</ele><time>2026-04-05T13:31:45Z</time></trkpt><trkpt lat="49.30062771468291" lon="-0.07535160919630214"><ele>15.57142857142857</ele><time>2026-04-05T13:31:47Z</time></trkpt><trkpt lat="49.300551008182374" lon="-0.07534532880936178"><ele>15.285714285714286</ele><time>2026-04-05T13:31:49Z</time></trkpt><trkpt lat="49.300477622030996" lon="-0.07539949674569722"><ele>15.0</ele><time>2026-04-05T13:31:51Z</time></trkpt><trkpt lat="49.30039280229815" lon="-0.07547090430600097"><ele>15.0</ele><time>2026-04-05T13:31:53Z</time></trkpt><trkpt lat="49.30030657989777" lon="-0.0755482954682624"><ele>15.0</ele><time>2026-04-05T13:31:55Z</time></trkpt><trkpt lat="49.30023786334449" lon="-0.07558994375459875"><ele>15.0</ele><time>2026-04-05T13:31:57Z</time></trkpt><trkpt lat="49.300157439521456" lon="-0.07566887999695776"><ele>15.0</ele><time>2026-04-05T13:31:59Z</time></trkpt><trkpt lat="49.300065186568816" lon="-0.07571510398912086"><ele>15.0</ele><time>2026-04-05T13:32:01Z</time></trkpt><trkpt lat="49.29998487725823" lon="-0.07579363748925436"><ele>14.5</ele><time>2026-04-05T13:32:06Z</time></trkpt><trkpt lat="49.29992008153779" lon="-0.07580814050286375"><ele>14.0</ele><time>2026-04-05T13:32:07Z</time></trkpt><trkpt lat="49.29982726041509" lon="-0.07586819538680478"><ele>13.5</ele><time>2026-04-05T13:32:09Z</time></trkpt><trkpt lat="49.29974286377561" lon="-0.07589099738049496"><ele>13.0</ele><time>2026-04-05T13:32:13Z</time></trkpt><trkpt lat="49.299671131143704" lon="-0.07591372795581798"><ele>12.5</ele><time>2026-04-05T13:32:15Z</time></trkpt><trkpt lat="49.29960034309102" lon="-0.07594660831800634"><ele>12.0</ele><time>2026-04-05T13:32:16Z</time></trkpt><trkpt lat="49.29953016724869" lon="-0.0759976147433636"><ele>11.666666666666666</ele><time>2026-04-05T13:32:17Z</time></trkpt><trkpt lat="49.29946749314582" lon="-0.07604457235085349"><ele>11.333333333333334</ele><time>2026-04-05T13:32:18Z</time></trkpt><trkpt lat="49.299353476744116" lon="-0.07613016924777424"><ele>11.0</ele><time>2026-04-05T13:32:20Z</time></trkpt><trkpt lat="49.29927714567749" lon="-0.07618516809788926"><ele>10.666666666666668</ele><time>2026-04-05T13:32:22Z</time></trkpt><trkpt lat="49.29922518503029" lon="-0.07627075823163496"><ele>10.333333333333334</ele><time>2026-04-05T13:32:24Z</time></trkpt><trkpt lat="49.29924199065556" lon="-0.07640458410274284"><ele>10.0</ele><time>2026-04-05T13:32:26Z</time></trkpt><trkpt lat="49.29924403877873" lon="-0.0765649125244621"><ele>9.833333333333334</ele><time>2026-04-05T13:32:29Z</time></trkpt><trkpt lat="49.29928029489868" lon="-0.07666374428692425"><ele>9.666666666666668</ele><time>2026-04-05T13:32:31Z</time></trkpt><trkpt lat="49.29929639206558" lon="-0.07679258308688715"><ele>9.5</ele><time>2026-04-05T13:32:33Z</time></trkpt><trkpt lat="49.29934339851632" lon="-0.07689107306834217"><ele>9.333333333333334</ele><time>2026-04-05T13:32:35Z</time></trkpt><trkpt lat="49.29938879901884" lon="-0.07701246897622038"><ele>9.166666666666666</ele><time>2026-04-05T13:32:37Z</time></trkpt><trkpt lat="49.29941132206967" lon="-0.07712699057824214"><ele>9.0</ele><time>2026-04-05T13:32:40Z</time></trkpt><trkpt lat="49.2994540615051" lon="-0.07723832065583834"><ele>9.0</ele><time>2026-04-05T13:32:43Z</time></trkpt><trkpt lat="49.29951065812648" lon="-0.07728861235405739"><ele>9.0</ele><time>2026-04-05T13:32:45Z</time></trkpt><trkpt lat="49.299577804981816" lon="-0.07738068365445622"><ele>9.0</ele><time>2026-04-05T13:32:47Z</time></trkpt><trkpt lat="49.299615333964944" lon="-0.07747177383051533"><ele>9.0</ele><time>2026-04-05T13:32:49Z</time></trkpt><trkpt lat="49.299662408274855" lon="-0.07756204660134787"><ele>9.0</ele><time>2026-04-05T13:32:51Z</time></trkpt><trkpt lat="49.299695208154546" lon="-0.07766993033648004"><ele>9.0</ele><time>2026-04-05T13:32:54Z</time></trkpt><trkpt lat="49.299736592897965" lon="-0.07777127254518752"><ele>9.0</ele><time>2026-04-05T13:32:58Z</time></trkpt><trkpt lat="49.29977050084363" lon="-0.07787548030449082"><ele>9.0</ele><time>2026-04-05T13:33:01Z</time></trkpt><trkpt lat="49.29981456643364" lon="-0.0779656309080944"><ele>9.0</ele><time>2026-04-05T13:33:03Z</time></trkpt><trkpt lat="49.29985000688233" lon="-0.07806060647815412"><ele>9.0</ele><time>2026-04-05T13:33:05Z</time></trkpt><trkpt lat="49.29989564674189" lon="-0.07817629847759024"><ele>9.0</ele><time>2026-04-05T13:33:08Z</time></trkpt><trkpt lat="49.299943649030496" lon="-0.07826297106246352"><ele>9.0</ele><time>2026-04-05T13:33:10Z</time></trkpt><trkpt lat="49.29998981748386" lon="-0.07834362496782275"><ele>9.0</ele><time>2026-04-05T13:33:12Z</time></trkpt><trkpt lat="49.300037103639006" lon="-0.07844490891569615"><ele>9.0</ele><time>2026-04-05T13:33:14Z</time></trkpt><trkpt lat="49.30007156615002" lon="-0.07855637320736114"><ele>9.0</ele><time>2026-04-05T13:33:16Z</time></trkpt><trkpt lat="49.3001067224788" lon="-0.07868459036548638"><ele>9.0</ele><time>2026-04-05T13:33:18Z</time></trkpt><trkpt lat="49.30011293720939" lon="-0.07879278163886387"><ele>9.0</ele><time>2026-04-05T13:33:20Z</time></trkpt><trkpt lat="49.30014994666097" lon="-0.07892820326360594"><ele>9.0</ele><time>2026-04-05T13:33:22Z</time></trkpt><trkpt lat="49.30018923565344" lon="-0.07904432755237528"><ele>9.0</ele><time>2026-04-05T13:33:24Z</time></trkpt><trkpt lat="49.3002240247213" lon="-0.07916521262503418"><ele>9.0</ele><time>2026-04-05T13:33:26Z</time></trkpt><trkpt lat="49.30026577956587" lon="-0.07929568392525178"><ele>9.0</ele><time>2026-04-05T13:33:28Z</time></trkpt><trkpt lat="49.300310195607544" lon="-0.07942474269681465"><ele>9.0</ele><time>2026-04-05T13:33:30Z</time></trkpt><trkpt lat="49.300350770676665" lon="-0.07956117432096224"><ele>9.0</ele><time>2026-04-05T13:33:32Z</time></trkpt><trkpt lat="49.30038320596258" lon="-0.07965289018943307"><ele>9.0</ele><time>2026-04-05T13:33:34Z</time></trkpt><trkpt lat="49.300416748847674" lon="-0.0797603102104925"><ele>9.000000000000002</ele><time>2026-04-05T13:33:36Z</time></trkpt><trkpt lat="49.30043314698675" lon="-0.07986528780408572"><ele>9.0</ele><time>2026-04-05T13:33:39Z</time></trkpt><trkpt lat="49.300484453718674" lon="-0.079962217150755"><ele>9.0</ele><time>2026-04-05T13:33:43Z</time></trkpt><trkpt lat="49.30047935576193" lon="-0.08007651744032569"><ele>9.0</ele><time>2026-04-05T13:33:55Z</time></trkpt><trkpt lat="49.30048614218956" lon="-0.08018050507837576"><ele>9.0</ele><time>2026-04-05T13:33:58Z</time></trkpt><trkpt lat="49.300546830989006" lon="-0.0802095334475173"><ele>9.000000000000002</ele><time>2026-04-05T13:34:03Z</time></trkpt><trkpt lat="49.30063542762734" lon="-0.08023523235414097"><ele>9.0</ele><time>2026-04-05T13:34:05Z</time></trkpt><trkpt lat="49.30055085363164" lon="-0.0802666313545587"><ele>8.833333333333334</ele><time>2026-04-05T13:34:10Z</time></trkpt><trkpt lat="49.300481381877795" lon="-0.08021282589869905"><ele>8.666666666666666</ele><time>2026-04-05T13:34:13Z</time></trkpt><trkpt lat="49.300420199295736" lon="-0.08016744663281947"><ele>8.5</ele><time>2026-04-05T13:34:15Z</time></trkpt><trkpt lat="49.30032497706641" lon="-0.08024381341152965"><ele>8.333333333333332</ele><time>2026-04-05T13:34:19Z</time></trkpt><trkpt lat="49.30024060078264" lon="-0.0802836090606925"><ele>8.166666666666666</ele><time>2026-04-05T13:34:21Z</time></trkpt><trkpt lat="49.300183750883065" lon="-0.0803711021233163"><ele>8.0</ele><time>2026-04-05T13:34:23Z</time></trkpt><trkpt lat="49.300117379931166" lon="-0.08043251667104366"><ele>7.999999999999999</ele><time>2026-04-05T13:34:25Z</time></trkpt><trkpt lat="49.30005047775274" lon="-0.0805097583991069"><ele>8.0</ele><time>2026-04-05T13:34:27Z</time></trkpt><trkpt lat="49.29996941702012" lon="-0.08057819490201953"><ele>8.0</ele><time>2026-04-05T13:34:30Z</time></trkpt><trkpt lat="49.29991802324236" lon="-0.08064135475208167"><ele>8.0</ele><time>2026-04-05T13:34:32Z</time></trkpt><trkpt lat="49.299924929805535" lon="-0.08077375624779892"><ele>7.999999999999999</ele><time>2026-04-05T13:34:35Z</time></trkpt><trkpt lat="49.29996960127638" lon="-0.08092625868250974"><ele>8.0</ele><time>2026-04-05T13:34:38Z</time></trkpt><trkpt lat="49.300040976783464" lon="-0.08101122466738553"><ele>7.833333333333333</ele><time>2026-04-05T13:34:40Z</time></trkpt><trkpt lat="49.3000838579231" lon="-0.08113887278336906"><ele>7.666666666666666</ele><time>2026-04-05T13:34:42Z</time></trkpt><trkpt lat="49.30012705783925" lon="-0.08123985958062895"><ele>7.5</ele><time>2026-04-05T13:34:44Z</time></trkpt><trkpt lat="49.300157713901704" lon="-0.08134234515664415"><ele>7.333333333333334</ele><time>2026-04-05T13:34:46Z</time></trkpt><trkpt lat="49.300202883863555" lon="-0.08141979258567573"><ele>7.166666666666667</ele><time>2026-04-05T13:34:48Z</time></trkpt><trkpt lat="49.300235806836206" lon="-0.08154162043771046"><ele>7.0</ele><time>2026-04-05T13:34:51Z</time></trkpt><trkpt lat="49.30024925856834" lon="-0.08164036983951607"><ele>6.833333333333334</ele><time>2026-04-05T13:34:54Z</time></trkpt><trkpt lat="49.30029477240087" lon="-0.08173843047210669"><ele>6.666666666666667</ele><time>2026-04-05T13:34:56Z</time></trkpt><trkpt lat="49.30033113527834" lon="-0.08182538367725782"><ele>6.5</ele><time>2026-04-05T13:34:59Z</time></trkpt><trkpt lat="49.30027072698851" lon="-0.08194004066822803"><ele>6.333333333333334</ele><time>2026-04-05T13:35:03Z</time></trkpt><trkpt lat="49.300246507223676" lon="-0.08204602511978819"><ele>6.166666666666667</ele><time>2026-04-05T13:35:05Z</time></trkpt><trkpt lat="49.30023226422834" lon="-0.08216770369618534"><ele>6.0</ele><time>2026-04-05T13:35:07Z</time></trkpt><trkpt lat="49.30022176821445" lon="-0.08229335068283712"><ele>6.0</ele><time>2026-04-05T13:35:09Z</time></trkpt><trkpt lat="49.30021671563754" lon="-0.08241930258911126"><ele>6.0</ele><time>2026-04-05T13:35:11Z</time></trkpt><trkpt lat="49.300149110743995" lon="-0.08251983816429442"><ele>6.0</ele><time>2026-04-05T13:35:13Z</time></trkpt><trkpt lat="49.30012668222088" lon="-0.08265109748649238"><ele>6.0</ele><time>2026-04-05T13:35:15Z</time></trkpt><trkpt lat="49.3001039039949" lon="-0.08274391242462371"><ele>6.0</ele><time>2026-04-05T13:35:17Z</time></trkpt><trkpt lat="49.300076311039554" lon="-0.08287480737971072"><ele>6.0</ele><time>2026-04-05T13:35:19Z</time></trkpt><trkpt lat="49.300050750317624" lon="-0.08299973244682393"><ele>6.0</ele><time>2026-04-05T13:35:21Z</time></trkpt><trkpt lat="49.300015620126274" lon="-0.0831290846080459"><ele>6.0</ele><time>2026-04-05T13:35:23Z</time></trkpt><trkpt lat="49.299977789738485" lon="-0.08320884248441716"><ele>6.0</ele><time>2026-04-05T13:35:25Z</time></trkpt><trkpt lat="49.29992862388149" lon="-0.08332144507638468"><ele>6.0</ele><time>2026-04-05T13:35:27Z</time></trkpt><trkpt lat="49.2998910121202" lon="-0.08342609285858338"><ele>6.0</ele><time>2026-04-05T13:35:29Z</time></trkpt><trkpt lat="49.29984045896647" lon="-0.08351488520977177"><ele>6.0</ele><time>2026-04-05T13:35:31Z</time></trkpt><trkpt lat="49.2997900759507" lon="-0.08359274532127109"><ele>6.666666666666667</ele><time>2026-04-05T13:35:33Z</time></trkpt><trkpt lat="49.299727188670225" lon="-0.08367003835510416"><ele>7.333333333333334</ele><time>2026-04-05T13:35:36Z</time></trkpt><trkpt lat="49.29967068610354" lon="-0.08371947670944033"><ele>8.0</ele><time>2026-04-05T13:36:27Z</time></trkpt><trkpt lat="49.29966240756284" lon="-0.08382427168134964"><ele>8.666666666666668</ele><time>2026-04-05T13:36:32Z</time></trkpt><trkpt lat="49.299646181885436" lon="-0.08392939615059566"><ele>9.333333333333334</ele><time>2026-04-05T13:36:34Z</time></trkpt><trkpt lat="49.299608117338515" lon="-0.08406004092338087"><ele>10.0</ele><time>2026-04-05T13:36:37Z</time></trkpt><trkpt lat="49.299548286526196" lon="-0.08412081166534256"><ele>10.0</ele><time>2026-04-05T13:36:40Z</time></trkpt><trkpt lat="49.29949837543255" lon="-0.08422707441897696"><ele>10.0</ele><time>2026-04-05T13:36:42Z</time></trkpt><trkpt lat="49.29942236482197" lon="-0.08428039112922299"><ele>10.0</ele><time>2026-04-05T13:36:44Z</time></trkpt><trkpt lat="49.29935438079431" lon="-0.08432641610267498"><ele>10.0</ele><time>2026-04-05T13:36:46Z</time></trkpt><trkpt lat="49.29929245549878" lon="-0.08440705739702332"><ele>10.0</ele><time>2026-04-05T13:36:48Z</time></trkpt><trkpt lat="49.29922451106587" lon="-0.08448361561581613"><ele>10.0</ele><time>2026-04-05T13:36:50Z</time></trkpt><trkpt lat="49.29918261303095" lon="-0.08456791007347789"><ele>10.0</ele><time>2026-04-05T13:36:52Z</time></trkpt><trkpt lat="49.29913527914486" lon="-0.08466125180082294"><ele>10.0</ele><time>2026-04-05T13:36:54Z</time></trkpt><trkpt lat="49.299081908926276" lon="-0.08476542704136432"><ele>10.0</ele><time>2026-04-05T13:36:57Z</time></trkpt><trkpt lat="49.29899534409004" lon="-0.08482985033300751"><ele>10.0</ele><time>2026-04-05T13:37:00Z</time></trkpt><trkpt lat="49.29892777795514" lon="-0.08490767366491621"><ele>10.0</ele><time>2026-04-05T13:37:02Z</time></trkpt><trkpt lat="49.298864034409085" lon="-0.08497234042378375"><ele>10.0</ele><time>2026-04-05T13:37:04Z</time></trkpt><trkpt lat="49.29877939220235" lon="-0.0850550875432583"><ele>10.2</ele><time>2026-04-05T13:37:06Z</time></trkpt><trkpt lat="49.298687847039155" lon="-0.08512757602300101"><ele>10.4</ele><time>2026-04-05T13:37:08Z</time></trkpt><trkpt lat="49.29860662787126" lon="-0.08521508561926301"><ele>10.600000000000001</ele><time>2026-04-05T13:37:10Z</time></trkpt><trkpt lat="49.298513068745365" lon="-0.08528892272589697"><ele>10.8</ele><time>2026-04-05T13:37:12Z</time></trkpt><trkpt lat="49.298426665488925" lon="-0.08536580999775724"><ele>11.0</ele><time>2026-04-05T13:37:14Z</time></trkpt><trkpt lat="49.298361242117096" lon="-0.08544572530444938"><ele>11.0</ele><time>2026-04-05T13:37:16Z</time></trkpt><trkpt lat="49.29830689295144" lon="-0.08549788083135836"><ele>11.0</ele><time>2026-04-05T13:37:18Z</time></trkpt><trkpt lat="49.29823592407978" lon="-0.08557684616317217"><ele>11.0</ele><time>2026-04-05T13:37:20Z</time></trkpt><trkpt lat="49.298167106546124" lon="-0.08565078077654545"><ele>11.0</ele><time>2026-04-05T13:37:22Z</time></trkpt><trkpt lat="49.298092602367824" lon="-0.08572014226360945"><ele>11.0</ele><time>2026-04-05T13:37:24Z</time></trkpt><trkpt lat="49.298017306992804" lon="-0.08576084514937828"><ele>11.0</ele><time>2026-04-05T13:37:26Z</time></trkpt><trkpt lat="49.29795084284516" lon="-0.08585714978483598"><ele>12.166666666666666</ele><time>2026-04-05T13:37:28Z</time></trkpt><trkpt lat="49.29788005938509" lon="-0.08592412275836198"><ele>13.333333333333332</ele><time>2026-04-05T13:37:30Z</time></trkpt><trkpt lat="49.29781228280401" lon="-0.08601727852806522"><ele>14.5</ele><time>2026-04-05T13:37:32Z</time></trkpt><trkpt lat="49.29774282254495" lon="-0.08608138589218428"><ele>15.666666666666666</ele><time>2026-04-05T13:37:34Z</time></trkpt><trkpt lat="49.2976616617502" lon="-0.08613517418824979"><ele>16.833333333333332</ele><time>2026-04-05T13:37:36Z</time></trkpt><trkpt lat="49.297599423296596" lon="-0.08622217460046107"><ele>18.0</ele><time>2026-04-05T13:37:38Z</time></trkpt><trkpt lat="49.29751146475993" lon="-0.08631159557277275"><ele>18.0</ele><time>2026-04-05T13:37:42Z</time></trkpt><trkpt lat="49.297419292603884" lon="-0.08641284845549287"><ele>18.0</ele><time>2026-04-05T13:37:44Z</time></trkpt><trkpt lat="49.2973624473823" lon="-0.08646442252151859"><ele>18.0</ele><time>2026-04-05T13:37:45Z</time></trkpt><trkpt lat="49.29727148588642" lon="-0.08655501170595882"><ele>18.0</ele><time>2026-04-05T13:37:47Z</time></trkpt><trkpt lat="49.297186773344215" lon="-0.08661885073621732"><ele>18.0</ele><time>2026-04-05T13:37:49Z</time></trkpt><trkpt lat="49.297099619348245" lon="-0.08671726233336946"><ele>17.6</ele><time>2026-04-05T13:37:51Z</time></trkpt><trkpt lat="49.297016447101676" lon="-0.08678978639694142"><ele>17.200000000000003</ele><time>2026-04-05T13:37:53Z</time></trkpt><trkpt lat="49.29692646645176" lon="-0.08687400539089939"><ele>16.8</ele><time>2026-04-05T13:37:55Z</time></trkpt><trkpt lat="49.29686744682526" lon="-0.08693649860974097"><ele>16.400000000000002</ele><time>2026-04-05T13:37:56Z</time></trkpt><trkpt lat="49.29677722536369" lon="-0.08704167857319758"><ele>16.0</ele><time>2026-04-05T13:37:58Z</time></trkpt><trkpt lat="49.29668041773984" lon="-0.08709352115201487"><ele>16.0</ele><time>2026-04-05T13:38:00Z</time></trkpt><trkpt lat="49.29659420576952" lon="-0.08714207329132218"><ele>16.0</ele><time>2026-04-05T13:38:02Z</time></trkpt><trkpt lat="49.29650647041381" lon="-0.08720920641564864"><ele>16.0</ele><time>2026-04-05T13:38:04Z</time></trkpt><trkpt lat="49.29643436978779" lon="-0.0872707726049143"><ele>16.0</ele><time>2026-04-05T13:38:06Z</time></trkpt><trkpt lat="49.29635137475167" lon="-0.08731600912224412"><ele>16.0</ele><time>2026-04-05T13:38:07.999Z</time></trkpt><trkpt lat="49.29626179620266" lon="-0.08737745881510603"><ele>14.333333333333332</ele><time>2026-04-05T13:38:09.999Z</time></trkpt><trkpt lat="49.296188335603084" lon="-0.08744108275704912"><ele>12.666666666666666</ele><time>2026-04-05T13:38:11.999Z</time></trkpt><trkpt lat="49.29610801322361" lon="-0.08751305750406166"><ele>11.0</ele><time>2026-04-05T13:38:14Z</time></trkpt><trkpt lat="49.29603644875575" lon="-0.08756129359898374"><ele>9.333333333333332</ele><time>2026-04-05T13:38:16Z</time></trkpt><trkpt lat="49.29595888864589" lon="-0.08761889271253469"><ele>7.666666666666666</ele><time>2026-04-05T13:38:18Z</time></trkpt><trkpt lat="49.2958913489001" lon="-0.0876964567364007"><ele>6.0</ele><time>2026-04-05T13:38:20Z</time></trkpt><trkpt lat="49.29582599240213" lon="-0.0877665571907311"><ele>6.0</ele><time>2026-04-05T13:38:22Z</time></trkpt><trkpt lat="49.29575224797099" lon="-0.08785884960264916"><ele>6.0</ele><time>2026-04-05T13:38:24Z</time></trkpt><trkpt lat="49.29569960349838" lon="-0.08794179212337724"><ele>6.0</ele><time>2026-04-05T13:38:26Z</time></trkpt><trkpt lat="49.295627049451866" lon="-0.08802059584408196"><ele>6.0</ele><time>2026-04-05T13:38:28Z</time></trkpt><trkpt lat="49.29555367631419" lon="-0.08809286112430308"><ele>6.0</ele><time>2026-04-05T13:38:30Z</time></trkpt><trkpt lat="49.29549146012237" lon="-0.08816807455241348"><ele>6.0</ele><time>2026-04-05T13:38:32Z</time></trkpt><trkpt lat="49.295433691169755" lon="-0.08825213460252322"><ele>8.8</ele><time>2026-04-05T13:38:34Z</time></trkpt><trkpt lat="49.29533065270679" lon="-0.08832215505435087"><ele>11.6</ele><time>2026-04-05T13:38:36Z</time></trkpt><trkpt lat="49.29526756075973" lon="-0.08842594828837799"><ele>14.4</ele><time>2026-04-05T13:38:38Z</time></trkpt><trkpt lat="49.295212574366474" lon="-0.08853718165419461"><ele>17.2</ele><time>2026-04-05T13:38:40Z</time></trkpt><trkpt lat="49.29515394193832" lon="-0.08863743345329983"><ele>20.0</ele><time>2026-04-05T13:38:42Z</time></trkpt><trkpt lat="49.295114939713685" lon="-0.08876176757861802"><ele>20.0</ele><time>2026-04-05T13:38:44Z</time></trkpt><trkpt lat="49.29506348355084" lon="-0.08886029352677688"><ele>20.0</ele><time>2026-04-05T13:38:46Z</time></trkpt><trkpt lat="49.29504759330376" lon="-0.08899061487328416"><ele>20.0</ele><time>2026-04-05T13:38:48Z</time></trkpt><trkpt lat="49.295058677514085" lon="-0.08909889319232255"><ele>20.0</ele><time>2026-04-05T13:38:51Z</time></trkpt><trkpt lat="49.29502080380062" lon="-0.08921756732202722"><ele>20.0</ele><time>2026-04-05T13:38:55Z</time></trkpt><trkpt lat="49.29497073171487" lon="-0.08932799885885936"><ele>20.0</ele><time>2026-04-05T13:38:58Z</time></trkpt><trkpt lat="49.29496453765191" lon="-0.08943481823729107"><ele>18.0</ele><time>2026-04-05T13:39:00Z</time></trkpt><trkpt lat="49.294908423785316" lon="-0.08952462497765917"><ele>16.0</ele><time>2026-04-05T13:39:02Z</time></trkpt><trkpt lat="49.29483701206286" lon="-0.08959005432083725"><ele>14.0</ele><time>2026-04-05T13:39:04Z</time></trkpt><trkpt lat="49.29476422529857" lon="-0.08962585611539906"><ele>12.0</ele><time>2026-04-05T13:39:09Z</time></trkpt><trkpt lat="49.29466513431649" lon="-0.08971422273906401"><ele>10.0</ele><time>2026-04-05T13:39:11Z</time></trkpt><trkpt lat="49.29467866841194" lon="-0.08989331942974646"><ele>11.333333333333334</ele><time>2026-04-05T13:39:12Z</time></trkpt><trkpt lat="49.29467055626583" lon="-0.08999115761432205"><ele>12.666666666666668</ele><time>2026-04-05T13:39:13Z</time></trkpt><trkpt lat="49.29464016507076" lon="-0.09019286081237417"><ele>14.0</ele><time>2026-04-05T13:39:15Z</time></trkpt><trkpt lat="49.29462484196683" lon="-0.09029322597222766"><ele>15.333333333333334</ele><time>2026-04-05T13:39:18Z</time></trkpt><trkpt lat="49.29460523546825" lon="-0.09042961511333701"><ele>16.666666666666668</ele><time>2026-04-05T13:39:21Z</time></trkpt><trkpt lat="49.29464803313413" lon="-0.0905421844898391"><ele>18.0</ele><time>2026-04-05T13:39:25Z</time></trkpt><trkpt lat="49.294695641584745" lon="-0.09061968218076841"><ele>18.0</ele><time>2026-04-05T13:39:30Z</time></trkpt><trkpt lat="49.2946518612863" lon="-0.09072582836487235"><ele>18.0</ele><time>2026-04-05T13:39:38Z</time></trkpt><trkpt lat="49.29462670517962" lon="-0.09085036917705602"><ele>18.0</ele><time>2026-04-05T13:39:43Z</time></trkpt><trkpt lat="49.29459609512882" lon="-0.09095700295052234"><ele>18.0</ele><time>2026-04-05T13:39:45Z</time></trkpt><trkpt lat="49.2945554399812" lon="-0.09104928160466773"><ele>18.0</ele><time>2026-04-05T13:39:47Z</time></trkpt><trkpt lat="49.29452356867225" lon="-0.09116111888177857"><ele>18.0</ele><time>2026-04-05T13:39:49Z</time></trkpt><trkpt lat="49.294476248785955" lon="-0.09128155509794436"><ele>15.833333333333334</ele><time>2026-04-05T13:39:51Z</time></trkpt><trkpt lat="49.29442874592366" lon="-0.09138854835238874"><ele>13.666666666666666</ele><time>2026-04-05T13:39:53Z</time></trkpt><trkpt lat="49.29439731728648" lon="-0.09149627561184778"><ele>11.5</ele><time>2026-04-05T13:39:55Z</time></trkpt><trkpt lat="49.294355616177135" lon="-0.09163337588209228"><ele>9.333333333333334</ele><time>2026-04-05T13:39:58Z</time></trkpt><trkpt lat="49.29431656544391" lon="-0.09175579960114624"><ele>7.166666666666667</ele><time>2026-04-05T13:40:00Z</time></trkpt><trkpt lat="49.29428279171423" lon="-0.09187533140295467"><ele>5.0</ele><time>2026-04-05T13:40:01.999Z</time></trkpt><trkpt lat="49.29425517830021" lon="-0.09199669121693407"><ele>4.833333333333334</ele><time>2026-04-05T13:40:03.999Z</time></trkpt><trkpt lat="49.29423029493377" lon="-0.09209555154317031"><ele>4.666666666666667</ele><time>2026-04-05T13:40:05.999Z</time></trkpt><trkpt lat="49.29420399052623" lon="-0.09220844250244008"><ele>4.5</ele><time>2026-04-05T13:40:07.999Z</time></trkpt><trkpt lat="49.294167914958294" lon="-0.09231800550491867"><ele>4.333333333333333</ele><time>2026-04-05T13:40:09.999Z</time></trkpt><trkpt lat="49.29413073256624" lon="-0.09243614424558398"><ele>4.166666666666666</ele><time>2026-04-05T13:40:11.999Z</time></trkpt><trkpt lat="49.294104833938235" lon="-0.09256470174355272"><ele>4.0</ele><time>2026-04-05T13:40:13.999Z</time></trkpt><trkpt lat="49.29410793111386" lon="-0.09268245953718197"><ele>3.9999999999999996</ele><time>2026-04-05T13:40:15.999Z</time></trkpt><trkpt lat="49.29405250082863" lon="-0.09278338068319293"><ele>4.0</ele><time>2026-04-05T13:40:17.999Z</time></trkpt><trkpt lat="49.29400922096902" lon="-0.09289612653661189"><ele>4.0</ele><time>2026-04-05T13:40:20Z</time></trkpt><trkpt lat="49.29398404498018" lon="-0.09300774875330302"><ele>4.0</ele><time>2026-04-05T13:40:22Z</time></trkpt><trkpt lat="49.29395879045975" lon="-0.09311972603357596"><ele>3.9999999999999996</ele><time>2026-04-05T13:40:24Z</time></trkpt><trkpt lat="49.29392431390284" lon="-0.09322427298959549"><ele>4.0</ele><time>2026-04-05T13:40:26Z</time></trkpt><trkpt lat="49.29389145707542" lon="-0.09332066416160502"><ele>3.833333333333333</ele><time>2026-04-05T13:40:28Z</time></trkpt><trkpt lat="49.29387110484549" lon="-0.09342861069850728"><ele>3.6666666666666665</ele><time>2026-04-05T13:40:30Z</time></trkpt><trkpt lat="49.293837923489725" lon="-0.09354566799874849"><ele>3.5</ele><time>2026-04-05T13:40:32Z</time></trkpt><trkpt lat="49.293809814791224" lon="-0.09365953564352936"><ele>3.333333333333333</ele><time>2026-04-05T13:40:34Z</time></trkpt><trkpt lat="49.2937811602748" lon="-0.09377382921190779"><ele>3.1666666666666665</ele><time>2026-04-05T13:40:36Z</time></trkpt><trkpt lat="49.293740131874266" lon="-0.09388569021150062"><ele>3.0</ele><time>2026-04-05T13:40:38Z</time></trkpt><trkpt lat="49.29371292407322" lon="-0.0940055756660659"><ele>3.0</ele><time>2026-04-05T13:40:40Z</time></trkpt><trkpt lat="49.29367431762746" lon="-0.09412388569958609"><ele>3.0</ele><time>2026-04-05T13:40:42Z</time></trkpt><trkpt lat="49.29363826937174" lon="-0.09424761926534729"><ele>3.0</ele><time>2026-04-05T13:40:44Z</time></trkpt><trkpt lat="49.293608215889684" lon="-0.09434078944265452"><ele>3.0</ele><time>2026-04-05T13:40:46Z</time></trkpt><trkpt lat="49.29356797715262" lon="-0.09446728598458808"><ele>3.0</ele><time>2026-04-05T13:40:48Z</time></trkpt><trkpt lat="49.29354237306915" lon="-0.09457600052620178"><ele>3.0</ele><time>2026-04-05T13:40:50Z</time></trkpt><trkpt lat="49.293505129528526" lon="-0.09468501686565695"><ele>3.0</ele><time>2026-04-05T13:40:52Z</time></trkpt><trkpt lat="49.29347157378412" lon="-0.09479256489359195"><ele>3.0</ele><time>2026-04-05T13:40:54Z</time></trkpt><trkpt lat="49.29343452410712" lon="-0.09491058653832206"><ele>3.0</ele><time>2026-04-05T13:40:56Z</time></trkpt><trkpt lat="49.29339167030819" lon="-0.09503920508194352"><ele>3.0</ele><time>2026-04-05T13:41:01Z</time></trkpt><trkpt lat="49.293354495813304" lon="-0.0951473710329506"><ele>3.0</ele><time>2026-04-05T13:41:03Z</time></trkpt><trkpt lat="49.2933094131257" lon="-0.09521521038335969"><ele>3.0</ele><time>2026-04-05T13:41:06Z</time></trkpt><trkpt lat="49.29332050436328" lon="-0.09531081345819024"><ele>3.0</ele><time>2026-04-05T13:41:08Z</time></trkpt><trkpt lat="49.293270713605224" lon="-0.09542124102327325"><ele>3.0</ele><time>2026-04-05T13:41:11Z</time></trkpt><trkpt lat="49.29324908699153" lon="-0.09553381503451673"><ele>3.0</ele><time>2026-04-05T13:41:13Z</time></trkpt><trkpt lat="49.293221257087765" lon="-0.09562316254747173"><ele>3.0</ele><time>2026-04-05T13:41:15Z</time></trkpt><trkpt lat="49.29318872921965" lon="-0.09572855607028845"><ele>3.0</ele><time>2026-04-05T13:41:17Z</time></trkpt><trkpt lat="49.29316836035404" lon="-0.09585613256491678"><ele>3.0</ele><time>2026-04-05T13:41:20Z</time></trkpt><trkpt lat="49.293148144377525" lon="-0.09595450850400775"><ele>3.0</ele><time>2026-04-05T13:41:21Z</time></trkpt><trkpt lat="49.29312372443586" lon="-0.09606451630355493"><ele>3.0</ele><time>2026-04-05T13:41:24Z</time></trkpt><trkpt lat="49.29307822146285" lon="-0.09615718644256614"><ele>3.0</ele><time>2026-04-05T13:41:26Z</time></trkpt><trkpt lat="49.29306186756996" lon="-0.09627507563330769"><ele>3.0</ele><time>2026-04-05T13:41:29Z</time></trkpt><trkpt lat="49.29301949697726" lon="-0.09640460031725638"><ele>3.0</ele><time>2026-04-05T13:41:31Z</time></trkpt><trkpt lat="49.29297423387543" lon="-0.09649680399674701"><ele>3.0</ele><time>2026-04-05T13:41:33Z</time></trkpt><trkpt lat="49.29295815944906" lon="-0.09664070398509546"><ele>3.0</ele><time>2026-04-05T13:41:36Z</time></trkpt><trkpt lat="49.29292736291281" lon="-0.0967966728787692"><ele>3.0</ele><time>2026-04-05T13:41:38Z</time></trkpt><trkpt lat="49.292885241978226" lon="-0.09689991692585657"><ele>3.0</ele><time>2026-04-05T13:41:39Z</time></trkpt><trkpt lat="49.292844631309734" lon="-0.09700670171363791"><ele>3.0</ele><time>2026-04-05T13:41:40Z</time></trkpt><trkpt lat="49.29281546352866" lon="-0.09709878703547463"><ele>3.0</ele><time>2026-04-05T13:41:41Z</time></trkpt><trkpt lat="49.292762290395075" lon="-0.09728452070116816"><ele>3.0</ele><time>2026-04-05T13:41:43Z</time></trkpt><trkpt lat="49.29271451174849" lon="-0.09744574669255643"><ele>3.0</ele><time>2026-04-05T13:41:45Z</time></trkpt><trkpt lat="49.2926716398131" lon="-0.0976175803211599"><ele>3.0</ele><time>2026-04-05T13:41:47Z</time></trkpt><trkpt lat="49.292630107866415" lon="-0.09776585468360809"><ele>3.0</ele><time>2026-04-05T13:41:49Z</time></trkpt><trkpt lat="49.292594800819124" lon="-0.09793344264729191"><ele>3.0</ele><time>2026-04-05T13:41:51Z</time></trkpt><trkpt lat="49.292564229894666" lon="-0.09806413898086094"><ele>3.0</ele><time>2026-04-05T13:41:53Z</time></trkpt><trkpt lat="49.29253203121149" lon="-0.09819925242774263"><ele>3.0</ele><time>2026-04-05T13:41:55Z</time></trkpt><trkpt lat="49.29249302132762" lon="-0.09833177544040204"><ele>3.0</ele><time>2026-04-05T13:41:57Z</time></trkpt><trkpt lat="49.29245625740167" lon="-0.09845721669412513"><ele>3.0</ele><time>2026-04-05T13:41:59Z</time></trkpt><trkpt lat="49.29241286576082" lon="-0.09856210147759271"><ele>2.8333333333333335</ele><time>2026-04-05T13:42:01Z</time></trkpt><trkpt lat="49.29237440027519" lon="-0.09867298295274249"><ele>2.6666666666666665</ele><time>2026-04-05T13:42:02.999Z</time></trkpt><trkpt lat="49.29232892771011" lon="-0.09877572529217549"><ele>2.5</ele><time>2026-04-05T13:42:04.999Z</time></trkpt><trkpt lat="49.292298126712836" lon="-0.09887584545700091"><ele>2.333333333333333</ele><time>2026-04-05T13:42:06.999Z</time></trkpt><trkpt lat="49.29225846557584" lon="-0.09899319532333492"><ele>2.1666666666666665</ele><time>2026-04-05T13:42:08.999Z</time></trkpt><trkpt lat="49.29220923362118" lon="-0.09910405078405377"><ele>2.0</ele><time>2026-04-05T13:42:10.999Z</time></trkpt><trkpt lat="49.29217757060374" lon="-0.09921597609652484"><ele>2.5</ele><time>2026-04-05T13:42:12.999Z</time></trkpt><trkpt lat="49.29211659953593" lon="-0.09931603704103528"><ele>3.0</ele><time>2026-04-05T13:42:14.999Z</time></trkpt><trkpt lat="49.29206698123428" lon="-0.09941045109947015"><ele>3.5</ele><time>2026-04-05T13:42:16.999Z</time></trkpt><trkpt lat="49.29202411065865" lon="-0.09948213049174275"><ele>4.0</ele><time>2026-04-05T13:42:18.999Z</time></trkpt><trkpt lat="49.291976868163644" lon="-0.0995872312434154"><ele>4.5</ele><time>2026-04-05T13:42:20.999Z</time></trkpt><trkpt lat="49.29192770300785" lon="-0.0996980658049946"><ele>5.0</ele><time>2026-04-05T13:42:22.999Z</time></trkpt><trkpt lat="49.291858249204225" lon="-0.09980103162434316"><ele>5.0</ele><time>2026-04-05T13:42:25Z</time></trkpt><trkpt lat="49.291791356847035" lon="-0.0999110220077066"><ele>5.0</ele><time>2026-04-05T13:42:28Z</time></trkpt><trkpt lat="49.29172460982201" lon="-0.09999770410649024"><ele>5.0</ele><time>2026-04-05T13:42:31Z</time></trkpt><trkpt lat="49.29167758938997" lon="-0.10006880507204154"><ele>5.0</ele><time>2026-04-05T13:42:33Z</time></trkpt><trkpt lat="49.2916306524782" lon="-0.1001484990768714"><ele>5.0</ele><time>2026-04-05T13:42:37Z</time></trkpt><trkpt lat="49.29159005979574" lon="-0.100237668977771"><ele>5.0</ele><time>2026-04-05T13:43:15Z</time></trkpt><trkpt lat="49.29153319721409" lon="-0.10031499831444683"><ele>5.0</ele><time>2026-04-05T13:43:18Z</time></trkpt><trkpt lat="49.29147222966646" lon="-0.10043514240714098"><ele>5.0</ele><time>2026-04-05T13:43:21Z</time></trkpt><trkpt lat="49.29145663104439" lon="-0.10054942347625469"><ele>5.0</ele><time>2026-04-05T13:43:24Z</time></trkpt><trkpt lat="49.29143433240192" lon="-0.100653269803404"><ele>5.0</ele><time>2026-04-05T13:43:28Z</time></trkpt><trkpt lat="49.29136124788387" lon="-0.10070176689796734"><ele>5.0</ele><time>2026-04-05T13:43:32Z</time></trkpt><trkpt lat="49.29129498049032" lon="-0.10073689989040777"><ele>5.0</ele><time>2026-04-05T13:43:36Z</time></trkpt><trkpt lat="49.29124236797765" lon="-0.10079147456947532"><ele>4.4</ele><time>2026-04-05T13:43:38Z</time></trkpt><trkpt lat="49.29119336133038" lon="-0.10092589334830723"><ele>3.8</ele><time>2026-04-05T13:43:41Z</time></trkpt><trkpt lat="49.29112986255334" lon="-0.10103390951063813"><ele>3.2</ele><time>2026-04-05T13:43:43Z</time></trkpt><trkpt lat="49.29106539835906" lon="-0.10113750724044071"><ele>2.6</ele><time>2026-04-05T13:43:45Z</time></trkpt><trkpt lat="49.29100713478018" lon="-0.10122612658915574"><ele>2.0</ele><time>2026-04-05T13:43:47Z</time></trkpt><trkpt lat="49.29092702161003" lon="-0.10135188443934498"><ele>2.0</ele><time>2026-04-05T13:43:49Z</time></trkpt><trkpt lat="49.29087565565566" lon="-0.10142087156157706"><ele>1.9999999999999998</ele><time>2026-04-05T13:43:50Z</time></trkpt><trkpt lat="49.29082850458341" lon="-0.10149980121232685"><ele>2.0</ele><time>2026-04-05T13:43:51Z</time></trkpt><trkpt lat="49.290791654675125" lon="-0.10158599923475951"><ele>2.0</ele><time>2026-04-05T13:43:52Z</time></trkpt><trkpt lat="49.2907445217888" lon="-0.10167430245483905"><ele>1.9999999999999998</ele><time>2026-04-05T13:43:53Z</time></trkpt><trkpt lat="49.2906957169974" lon="-0.10175263092350348"><ele>2.0</ele><time>2026-04-05T13:43:54Z</time></trkpt><trkpt lat="49.29063799714213" lon="-0.10186226505363087"><ele>2.0</ele><time>2026-04-05T13:43:55Z</time></trkpt><trkpt lat="49.290592084273946" lon="-0.10194394690649275"><ele>1.9999999999999998</ele><time>2026-04-05T13:43:56Z</time></trkpt><trkpt lat="49.2905380735255" lon="-0.10203122316678521"><ele>2.0</ele><time>2026-04-05T13:43:57Z</time></trkpt><trkpt lat="49.29048565692223" lon="-0.1021139580986784"><ele>2.0</ele><time>2026-04-05T13:43:58Z</time></trkpt><trkpt lat="49.290423589981785" lon="-0.1022001126379318"><ele>2.0</ele><time>2026-04-05T13:43:59Z</time></trkpt><trkpt lat="49.29038315526578" lon="-0.10229474300992189"><ele>1.9999999999999998</ele><time>2026-04-05T13:44:00Z</time></trkpt><trkpt lat="49.29032876420183" lon="-0.10237855922640347"><ele>2.0</ele><time>2026-04-05T13:44:01Z</time></trkpt><trkpt lat="49.29027731799541" lon="-0.10248330530044997"><ele>1.8333333333333333</ele><time>2026-04-05T13:44:02Z</time></trkpt><trkpt lat="49.2901978855151" lon="-0.10260810754775951"><ele>1.6666666666666665</ele><time>2026-04-05T13:44:04Z</time></trkpt><trkpt lat="49.29013040640794" lon="-0.10271369557027618"><ele>1.5</ele><time>2026-04-05T13:44:06Z</time></trkpt><trkpt lat="49.29008032022923" lon="-0.10277219158749187"><ele>1.3333333333333333</ele><time>2026-04-05T13:44:08Z</time></trkpt><trkpt lat="49.29003836779197" lon="-0.10285383730892968"><ele>1.1666666666666665</ele><time>2026-04-05T13:44:09.999Z</time></trkpt><trkpt lat="49.28998990758008" lon="-0.10293729251265261"><ele>1.0</ele><time>2026-04-05T13:44:11.999Z</time></trkpt><trkpt lat="49.289942358992974" lon="-0.10302333138473019"><ele>0.9999999999999999</ele><time>2026-04-05T13:44:13.999Z</time></trkpt><trkpt lat="49.289864243826806" lon="-0.10313216026139888"><ele>1.0</ele><time>2026-04-05T13:44:16.999Z</time></trkpt><trkpt lat="49.289856547218434" lon="-0.10324992018101753"><ele>1.0</ele><time>2026-04-05T13:44:18.999Z</time></trkpt><trkpt lat="49.28992742284353" lon="-0.10333520575652602"><ele>1.0</ele><time>2026-04-05T13:44:21.999Z</time></trkpt><trkpt lat="49.28997313409481" lon="-0.10341179514356168"><ele>0.9999999999999999</ele><time>2026-04-05T13:44:24.999Z</time></trkpt><trkpt lat="49.29003277348516" lon="-0.10346694579886379"><ele>1.0</ele><time>2026-04-05T13:44:27.999Z</time></trkpt><trkpt lat="49.29008135606462" lon="-0.10355397234941136"><ele>1.3333333333333333</ele><time>2026-04-05T13:44:33Z</time></trkpt><trkpt lat="49.29014083950398" lon="-0.10362809016732946"><ele>1.6666666666666665</ele><time>2026-04-05T13:44:36Z</time></trkpt><trkpt lat="49.29017562752706" lon="-0.10371835198392676"><ele>2.0</ele><time>2026-04-05T13:44:39Z</time></trkpt><trkpt lat="49.29025080510018" lon="-0.10373924955521137"><ele>2.3333333333333335</ele><time>2026-04-05T13:44:43Z</time></trkpt><trkpt lat="49.29031085162607" lon="-0.10382405412035496"><ele>2.6666666666666665</ele><time>2026-04-05T13:44:47Z</time></trkpt><trkpt lat="49.290336333680344" lon="-0.10394691660450381"><ele>3.0</ele><time>2026-04-05T13:44:52Z</time></trkpt><trkpt lat="49.29031486486742" lon="-0.10403782754662787"><ele>2.8333333333333335</ele><time>2026-04-05T13:44:55Z</time></trkpt><trkpt lat="49.290296790193196" lon="-0.10414315890501855"><ele>2.6666666666666665</ele><time>2026-04-05T13:44:59Z</time></trkpt><trkpt lat="49.29026923187264" lon="-0.10425363564480902"><ele>2.5</ele><time>2026-04-05T13:45:46Z</time></trkpt><trkpt lat="49.29018784410803" lon="-0.10431997785419925"><ele>2.333333333333333</ele><time>2026-04-05T13:45:49Z</time></trkpt><trkpt lat="49.29010213045532" lon="-0.10437935816080825"><ele>2.1666666666666665</ele><time>2026-04-05T13:45:51.999Z</time></trkpt><trkpt lat="49.29002838463233" lon="-0.10442715613528632"><ele>2.0</ele><time>2026-04-05T13:45:53.999Z</time></trkpt><trkpt lat="49.28997096585761" lon="-0.10446888056056466"><ele>1.9999999999999998</ele><time>2026-04-05T13:45:55.999Z</time></trkpt><trkpt lat="49.28991034222789" lon="-0.10453247043114122"><ele>2.0</ele><time>2026-04-05T13:45:57.999Z</time></trkpt><trkpt lat="49.28984407063331" lon="-0.10462661187057326"><ele>2.0</ele><time>2026-04-05T13:45:59.999Z</time></trkpt><trkpt lat="49.28978261183466" lon="-0.10470643309947525"><ele>2.0</ele><time>2026-04-05T13:46:01.999Z</time></trkpt><trkpt lat="49.28972532497691" lon="-0.10477374251659714"><ele>1.9999999999999998</ele><time>2026-04-05T13:46:03.999Z</time></trkpt><trkpt lat="49.289670935771575" lon="-0.10483355408719672"><ele>2.0</ele><time>2026-04-05T13:46:05.999Z</time></trkpt><trkpt lat="49.289602888870256" lon="-0.1049099800912727"><ele>1.8333333333333333</ele><time>2026-04-05T13:46:07.999Z</time></trkpt><trkpt lat="49.28954963792687" lon="-0.10498003452997813"><ele>1.6666666666666665</ele><time>2026-04-05T13:46:09.999Z</time></trkpt><trkpt lat="49.28948745060562" lon="-0.1050566117687431"><ele>1.5</ele><time>2026-04-05T13:46:11.999Z</time></trkpt><trkpt lat="49.28943306025012" lon="-0.10513192114206467"><ele>1.3333333333333333</ele><time>2026-04-05T13:46:13.999Z</time></trkpt><trkpt lat="49.289377039065705" lon="-0.10519989308140608"><ele>1.1666666666666665</ele><time>2026-04-05T13:46:15.999Z</time></trkpt><trkpt lat="49.28932390438287" lon="-0.10527950744640384"><ele>1.0</ele><time>2026-04-05T13:46:17.999Z</time></trkpt><trkpt lat="49.289249125063044" lon="-0.10534653080531318"><ele>0.9999999999999999</ele><time>2026-04-05T13:46:19.999Z</time></trkpt><trkpt lat="49.28919233093749" lon="-0.1054270277408875"><ele>1.0</ele><time>2026-04-05T13:46:21.999Z</time></trkpt><trkpt lat="49.289127511668454" lon="-0.10548471168618205"><ele>1.0</ele><time>2026-04-05T13:46:23.999Z</time></trkpt><trkpt lat="49.28906950664842" lon="-0.1055631454260449"><ele>1.0</ele><time>2026-04-05T13:46:25.999Z</time></trkpt><trkpt lat="49.28901058674021" lon="-0.10563672410533166"><ele>0.9999999999999999</ele><time>2026-04-05T13:46:27.999Z</time></trkpt><trkpt lat="49.28894109490234" lon="-0.10569484192705955"><ele>1.0</ele><time>2026-04-05T13:46:29.999Z</time></trkpt><trkpt lat="49.28888207655942" lon="-0.10576691967100013"><ele>0.9999999999999999</ele><time>2026-04-05T13:46:31.999Z</time></trkpt><trkpt lat="49.28881643841561" lon="-0.1058584330521611"><ele>1.0</ele><time>2026-04-05T13:46:33.999Z</time></trkpt><trkpt lat="49.28875089396689" lon="-0.10593898543338434"><ele>1.0</ele><time>2026-04-05T13:46:35.999Z</time></trkpt><trkpt lat="49.28869240496143" lon="-0.10600573988508594"><ele>1.0</ele><time>2026-04-05T13:46:38Z</time></trkpt><trkpt lat="49.28863679765957" lon="-0.10607712106172108"><ele>0.9999999999999999</ele><time>2026-04-05T13:46:40Z</time></trkpt><trkpt lat="49.28857165857234" lon="-0.1061379661159443"><ele>1.0</ele><time>2026-04-05T13:46:42Z</time></trkpt><trkpt lat="49.288498004869695" lon="-0.10623015867201356"><ele>0.9999999999999999</ele><time>2026-04-05T13:46:44Z</time></trkpt><trkpt lat="49.288427695512354" lon="-0.10628778193495932"><ele>1.0</ele><time>2026-04-05T13:46:46Z</time></trkpt><trkpt lat="49.288367135534585" lon="-0.10636197489752519"><ele>1.0</ele><time>2026-04-05T13:46:48Z</time></trkpt><trkpt lat="49.28830128465255" lon="-0.1064337336864468"><ele>1.0</ele><time>2026-04-05T13:46:50Z</time></trkpt><trkpt lat="49.28824168341296" lon="-0.10649507539234103"><ele>0.9999999999999999</ele><time>2026-04-05T13:46:52Z</time></trkpt><trkpt lat="49.288167555914036" lon="-0.1065591545054332"><ele>1.0</ele><time>2026-04-05T13:46:54Z</time></trkpt><trkpt lat="49.28808335557689" lon="-0.10661204008353356"><ele>1.1666666666666665</ele><time>2026-04-05T13:46:56Z</time></trkpt><trkpt lat="49.28801478776244" lon="-0.10666270074068289"><ele>1.3333333333333333</ele><time>2026-04-05T13:46:58Z</time></trkpt><trkpt lat="49.28793988927211" lon="-0.10674652230186879"><ele>1.5</ele><time>2026-04-05T13:47:00Z</time></trkpt><trkpt lat="49.28787962329136" lon="-0.10684259064990805"><ele>1.6666666666666665</ele><time>2026-04-05T13:47:02Z</time></trkpt><trkpt lat="49.28782028882625" lon="-0.10694366163156184"><ele>1.8333333333333333</ele><time>2026-04-05T13:47:04Z</time></trkpt><trkpt lat="49.28776576019299" lon="-0.10705982391925754"><ele>2.0</ele><time>2026-04-05T13:47:06Z</time></trkpt><trkpt lat="49.287729168711486" lon="-0.1071830689475452"><ele>1.9999999999999998</ele><time>2026-04-05T13:47:08Z</time></trkpt><trkpt lat="49.28768943656971" lon="-0.1072689147041611"><ele>2.0</ele><time>2026-04-05T13:47:10Z</time></trkpt><trkpt lat="49.28764536822391" lon="-0.1073770508633147"><ele>2.0</ele><time>2026-04-05T13:47:12Z</time></trkpt><trkpt lat="49.28760186243222" lon="-0.10748212667235713"><ele>2.0</ele><time>2026-04-05T13:47:14Z</time></trkpt><trkpt lat="49.287554177859484" lon="-0.1075577732620132"><ele>1.9999999999999998</ele><time>2026-04-05T13:47:16Z</time></trkpt><trkpt lat="49.28750896436608" lon="-0.10769463371774683"><ele>2.0</ele><time>2026-04-05T13:47:18Z</time></trkpt><trkpt lat="49.28746758259335" lon="-0.10780427426796359"><ele>1.9999999999999998</ele><time>2026-04-05T13:47:20Z</time></trkpt><trkpt lat="49.287432031264956" lon="-0.1079060634788207"><ele>2.0</ele><time>2026-04-05T13:47:22Z</time></trkpt><trkpt lat="49.28738694455217" lon="-0.10800844939912106"><ele>2.0</ele><time>2026-04-05T13:47:24Z</time></trkpt><trkpt lat="49.28735051042758" lon="-0.10810818649209325"><ele>2.0</ele><time>2026-04-05T13:47:26Z</time></trkpt><trkpt lat="49.28731485912108" lon="-0.10822444811013417"><ele>1.9999999999999998</ele><time>2026-04-05T13:47:28Z</time></trkpt><trkpt lat="49.28726730009989" lon="-0.1083146196450855"><ele>2.0</ele><time>2026-04-05T13:47:30Z</time></trkpt><trkpt lat="49.287219659742476" lon="-0.10840996500047476"><ele>1.9999999999999998</ele><time>2026-04-05T13:47:32Z</time></trkpt><trkpt lat="49.287181616742906" lon="-0.10850399456913146"><ele>2.0</ele><time>2026-04-05T13:47:34Z</time></trkpt><trkpt lat="49.28715030914294" lon="-0.10862132343198663"><ele>2.0</ele><time>2026-04-05T13:47:36Z</time></trkpt><trkpt lat="49.28708789910182" lon="-0.1087299832416835"><ele>2.0</ele><time>2026-04-05T13:47:39Z</time></trkpt><trkpt lat="49.287041859598126" lon="-0.10881060085172806"><ele>1.9999999999999998</ele><time>2026-04-05T13:47:41Z</time></trkpt><trkpt lat="49.28700537927628" lon="-0.1088999142261532"><ele>2.0</ele><time>2026-04-05T13:47:43Z</time></trkpt><trkpt lat="49.286954334966055" lon="-0.10900160454571861"><ele>2.333333333333333</ele><time>2026-04-05T13:47:45Z</time></trkpt><trkpt lat="49.2869057287985" lon="-0.10908664431506036"><ele>2.6666666666666665</ele><time>2026-04-05T13:47:47Z</time></trkpt><trkpt lat="49.28685387842012" lon="-0.10917532118469722"><ele>3.0</ele><time>2026-04-05T13:47:49Z</time></trkpt><trkpt lat="49.28679715241823" lon="-0.10926730436662081"><ele>3.333333333333333</ele><time>2026-04-05T13:47:51Z</time></trkpt><trkpt lat="49.286738795266125" lon="-0.10935698502586685"><ele>3.6666666666666665</ele><time>2026-04-05T13:47:53Z</time></trkpt><trkpt lat="49.28668147423497" lon="-0.10944611410178998"><ele>4.0</ele><time>2026-04-05T13:47:55Z</time></trkpt><trkpt lat="49.28663057095835" lon="-0.10955317585923795"><ele>3.9999999999999996</ele><time>2026-04-05T13:47:57Z</time></trkpt><trkpt lat="49.28658419706781" lon="-0.10967754959471501"><ele>4.0</ele><time>2026-04-05T13:47:59Z</time></trkpt><trkpt lat="49.28654226445836" lon="-0.10977854109256152"><ele>4.0</ele><time>2026-04-05T13:48:01Z</time></trkpt><trkpt lat="49.28650337082095" lon="-0.10987643992261949"><ele>4.0</ele><time>2026-04-05T13:48:03Z</time></trkpt><trkpt lat="49.286465298182435" lon="-0.10997062363483083"><ele>3.9999999999999996</ele><time>2026-04-05T13:48:05Z</time></trkpt><trkpt lat="49.286414447355426" lon="-0.11007747570556844"><ele>4.0</ele><time>2026-04-05T13:48:07Z</time></trkpt><trkpt lat="49.28635939450903" lon="-0.11015177532855132"><ele>4.142857142857142</ele><time>2026-04-05T13:48:09Z</time></trkpt><trkpt lat="49.28630809111049" lon="-0.11022535229643304"><ele>4.285714285714286</ele><time>2026-04-05T13:48:11Z</time></trkpt><trkpt lat="49.286253898131676" lon="-0.11031470588147056"><ele>4.428571428571429</ele><time>2026-04-05T13:48:13Z</time></trkpt><trkpt lat="49.28619575165834" lon="-0.1103986313625244"><ele>4.571428571428571</ele><time>2026-04-05T13:48:15Z</time></trkpt><trkpt lat="49.286142268362696" lon="-0.11048427373902839"><ele>4.714285714285714</ele><time>2026-04-05T13:48:17Z</time></trkpt><trkpt lat="49.28609176186858" lon="-0.11055726049501678"><ele>4.857142857142857</ele><time>2026-04-05T13:48:19Z</time></trkpt><trkpt lat="49.286038996112644" lon="-0.11062830575080855"><ele>5.0</ele><time>2026-04-05T13:48:20.999Z</time></trkpt><trkpt lat="49.285988258869814" lon="-0.11069774539228784"><ele>5.285714285714286</ele><time>2026-04-05T13:48:22.999Z</time></trkpt><trkpt lat="49.28594003111514" lon="-0.110763185747837"><ele>5.571428571428571</ele><time>2026-04-05T13:48:24.999Z</time></trkpt><trkpt lat="49.28589555264414" lon="-0.11083254306081233"><ele>5.857142857142858</ele><time>2026-04-05T13:48:26.999Z</time></trkpt><trkpt lat="49.28585282260436" lon="-0.11093505857662511"><ele>6.142857142857142</ele><time>2026-04-05T13:48:29.999Z</time></trkpt><trkpt lat="49.285823182466885" lon="-0.11102087206535047"><ele>6.428571428571429</ele><time>2026-04-05T13:48:32.999Z</time></trkpt><trkpt lat="49.285783432902385" lon="-0.1111189320169218"><ele>6.714285714285714</ele><time>2026-04-05T13:48:36.999Z</time></trkpt><trkpt lat="49.2857281128875" lon="-0.11118288136709473"><ele>7.0</ele><time>2026-04-05T13:48:41.999Z</time></trkpt><trkpt lat="49.28575824715769" lon="-0.11127701103317024"><ele>7.0</ele><time>2026-04-05T13:48:52Z</time></trkpt><trkpt lat="49.285770917949314" lon="-0.11139138078451837"><ele>7.0</ele><time>2026-04-05T13:48:59Z</time></trkpt><trkpt lat="49.28579362353395" lon="-0.11150437344811391"><ele>7.0</ele><time>2026-04-05T13:49:07Z</time></trkpt><trkpt lat="49.28581491846192" lon="-0.11161247469822025"><ele>7.0</ele><time>2026-04-05T13:49:13Z</time></trkpt><trkpt lat="49.28584642005231" lon="-0.1117011324939017"><ele>7.0</ele><time>2026-04-05T13:49:18Z</time></trkpt><trkpt lat="49.28587385576265" lon="-0.11178928170765884"><ele>7.0</ele><time>2026-04-05T13:49:24Z</time></trkpt><trkpt lat="49.28590240439574" lon="-0.1118950898170193"><ele>7.0</ele><time>2026-04-05T13:49:30Z</time></trkpt><trkpt lat="49.28591952105651" lon="-0.11199452283147941"><ele>6.571428571428571</ele><time>2026-04-05T13:49:36Z</time></trkpt><trkpt lat="49.28596257187051" lon="-0.11206512911194724"><ele>6.142857142857142</ele><time>2026-04-05T13:49:40Z</time></trkpt><trkpt lat="49.28598695457364" lon="-0.1121664057547514"><ele>5.714285714285714</ele><time>2026-04-05T13:49:50Z</time></trkpt><trkpt lat="49.286044783670974" lon="-0.11222409766400133"><ele>5.285714285714286</ele><time>2026-04-05T13:50:09Z</time></trkpt><trkpt lat="49.2861019595597" lon="-0.11218354096659547"><ele>4.857142857142857</ele><time>2026-04-05T13:50:11Z</time></trkpt><trkpt lat="49.28616992133518" lon="-0.11212817199433064"><ele>4.428571428571429</ele><time>2026-04-05T13:50:13Z</time></trkpt><trkpt lat="49.286230521303914" lon="-0.11207823485502658"><ele>4.0</ele><time>2026-04-05T13:50:15Z</time></trkpt><trkpt lat="49.28631022228363" lon="-0.11202604872026538"><ele>3.9999999999999996</ele><time>2026-04-05T13:50:17Z</time></trkpt><trkpt lat="49.28638007522717" lon="-0.1119881113623316"><ele>4.0</ele><time>2026-04-05T13:50:19Z</time></trkpt><trkpt lat="49.2864619849113" lon="-0.11195993104906861"><ele>4.0</ele><time>2026-04-05T13:50:20.999Z</time></trkpt><trkpt lat="49.28653911230572" lon="-0.11192741550451316"><ele>4.0</ele><time>2026-04-05T13:50:22.999Z</time></trkpt><trkpt lat="49.28661655826351" lon="-0.11187593598222059"><ele>3.9999999999999996</ele><time>2026-04-05T13:50:24.999Z</time></trkpt><trkpt lat="49.286678249380195" lon="-0.1117726957402881"><ele>4.0</ele><time>2026-04-05T13:50:26.999Z</time></trkpt><trkpt lat="49.28674266587628" lon="-0.11167888143324259"><ele>3.9999999999999996</ele><time>2026-04-05T13:50:28.999Z</time></trkpt><trkpt lat="49.28680593185968" lon="-0.1116074479486245"><ele>4.0</ele><time>2026-04-05T13:50:30.999Z</time></trkpt><trkpt lat="49.28685988586632" lon="-0.11150336573082198"><ele>4.0</ele><time>2026-04-05T13:50:32.999Z</time></trkpt><trkpt lat="49.28690839765374" lon="-0.11140185235568932"><ele>4.0</ele><time>2026-04-05T13:50:34.999Z</time></trkpt><trkpt lat="49.286972501969544" lon="-0.11133385385986513"><ele>3.9999999999999996</ele><time>2026-04-05T13:50:36.999Z</time></trkpt><trkpt lat="49.28703487602098" lon="-0.11124284696574038"><ele>4.0</ele><time>2026-04-05T13:50:38.999Z</time></trkpt><trkpt lat="49.28708369006507" lon="-0.11115669924994558"><ele>3.9999999999999996</ele><time>2026-04-05T13:50:40.999Z</time></trkpt><trkpt lat="49.28715787529373" lon="-0.11104493498261757"><ele>4.0</ele><time>2026-04-05T13:50:42.999Z</time></trkpt><trkpt lat="49.287214759789684" lon="-0.11094901577382671"><ele>4.0</ele><time>2026-04-05T13:50:44.999Z</time></trkpt><trkpt lat="49.2872816888022" lon="-0.11087988581174094"><ele>4.0</ele><time>2026-04-05T13:50:46.999Z</time></trkpt><trkpt lat="49.28733569478551" lon="-0.11077763679579909"><ele>3.9999999999999996</ele><time>2026-04-05T13:50:49Z</time></trkpt><trkpt lat="49.28738283606515" lon="-0.11069459976212984"><ele>4.0</ele><time>2026-04-05T13:50:51Z</time></trkpt><trkpt lat="49.28743236044424" lon="-0.11061386316961648"><ele>3.9999999999999996</ele><time>2026-04-05T13:50:53Z</time></trkpt><trkpt lat="49.2874809488637" lon="-0.1105112894214253"><ele>4.0</ele><time>2026-04-05T13:50:55Z</time></trkpt><trkpt lat="49.287528770365874" lon="-0.110427296485107"><ele>4.0</ele><time>2026-04-05T13:50:57Z</time></trkpt><trkpt lat="49.28758379265983" lon="-0.11033690285051974"><ele>4.0</ele><time>2026-04-05T13:50:59Z</time></trkpt><trkpt lat="49.28763481090587" lon="-0.11024990115204328"><ele>3.9999999999999996</ele><time>2026-04-05T13:51:01Z</time></trkpt><trkpt lat="49.28767689767865" lon="-0.11012019132376986"><ele>4.0</ele><time>2026-04-05T13:51:03Z</time></trkpt><trkpt lat="49.28772080766935" lon="-0.11000454999192648"><ele>3.9999999999999996</ele><time>2026-04-05T13:51:05Z</time></trkpt><trkpt lat="49.287768141387225" lon="-0.10992012027085446"><ele>4.0</ele><time>2026-04-05T13:51:07Z</time></trkpt><trkpt lat="49.2878085844099" lon="-0.10978400375961725"><ele>4.0</ele><time>2026-04-05T13:51:09Z</time></trkpt><trkpt lat="49.287860281914796" lon="-0.10966279670809043"><ele>4.0</ele><time>2026-04-05T13:51:11Z</time></trkpt><trkpt lat="49.28791253828221" lon="-0.10957097698110042"><ele>3.9999999999999996</ele><time>2026-04-05T13:51:13Z</time></trkpt><trkpt lat="49.28796373527661" lon="-0.10946174772547435"><ele>4.0</ele><time>2026-04-05T13:51:15Z</time></trkpt><trkpt lat="49.28799888122311" lon="-0.10936445711363213"><ele>3.6666666666666665</ele><time>2026-04-05T13:51:17Z</time></trkpt><trkpt lat="49.28804182264347" lon="-0.10927406216862105"><ele>3.333333333333333</ele><time>2026-04-05T13:51:19Z</time></trkpt><trkpt lat="49.288092843872555" lon="-0.10917073297722912"><ele>3.0</ele><time>2026-04-05T13:51:21Z</time></trkpt><trkpt lat="49.28813618831537" lon="-0.10905806960847964"><ele>2.6666666666666665</ele><time>2026-04-05T13:51:23Z</time></trkpt><trkpt lat="49.288190667904686" lon="-0.1089545151684187"><ele>2.333333333333333</ele><time>2026-04-05T13:51:25Z</time></trkpt><trkpt lat="49.28822778807461" lon="-0.10884668906059128"><ele>2.0</ele><time>2026-04-05T13:51:27Z</time></trkpt><trkpt lat="49.28826864672394" lon="-0.10874512850670942"><ele>1.9999999999999998</ele><time>2026-04-05T13:51:29Z</time></trkpt><trkpt lat="49.28831116348755" lon="-0.10864176516485498"><ele>2.0</ele><time>2026-04-05T13:51:31Z</time></trkpt><trkpt lat="49.288363407886365" lon="-0.10854602798393394"><ele>2.0</ele><time>2026-04-05T13:51:33Z</time></trkpt><trkpt lat="49.288404467674994" lon="-0.10844399118902155"><ele>2.0</ele><time>2026-04-05T13:51:35Z</time></trkpt><trkpt lat="49.288442058467886" lon="-0.10834206869082692"><ele>1.9999999999999998</ele><time>2026-04-05T13:51:37Z</time></trkpt><trkpt lat="49.28848789194627" lon="-0.10824317323011903"><ele>2.0</ele><time>2026-04-05T13:51:39Z</time></trkpt><trkpt lat="49.28853758798744" lon="-0.10815192705346853"><ele>2.1666666666666665</ele><time>2026-04-05T13:51:41Z</time></trkpt><trkpt lat="49.28858045402934" lon="-0.10805679373047522"><ele>2.333333333333333</ele><time>2026-04-05T13:51:43Z</time></trkpt><trkpt lat="49.28864341144248" lon="-0.10794479493428172"><ele>2.5</ele><time>2026-04-05T13:51:45Z</time></trkpt><trkpt lat="49.28868928497075" lon="-0.1078549889234665"><ele>2.6666666666666665</ele><time>2026-04-05T13:51:47Z</time></trkpt><trkpt lat="49.28874604007254" lon="-0.10773090156788565"><ele>2.8333333333333335</ele><time>2026-04-05T13:51:49Z</time></trkpt><trkpt lat="49.28880439569005" lon="-0.10763041589058853"><ele>3.0</ele><time>2026-04-05T13:51:51Z</time></trkpt><trkpt lat="49.28885313428878" lon="-0.10753479635199706"><ele>3.0</ele><time>2026-04-05T13:51:53Z</time></trkpt><trkpt lat="49.288914268414" lon="-0.10744782432578645"><ele>3.0</ele><time>2026-04-05T13:51:55Z</time></trkpt><trkpt lat="49.28897481326526" lon="-0.10736093661172694"><ele>3.0</ele><time>2026-04-05T13:51:57Z</time></trkpt><trkpt lat="49.289020293830106" lon="-0.10727070801333917"><ele>3.0</ele><time>2026-04-05T13:51:59Z</time></trkpt><trkpt lat="49.28907635238754" lon="-0.10720084438905796"><ele>3.0</ele><time>2026-04-05T13:52:01Z</time></trkpt><trkpt lat="49.28914585609764" lon="-0.10713023128673524"><ele>3.0</ele><time>2026-04-05T13:52:03Z</time></trkpt><trkpt lat="49.289222202895374" lon="-0.10708874833169396"><ele>2.6666666666666665</ele><time>2026-04-05T13:52:05Z</time></trkpt><trkpt lat="49.28929918223598" lon="-0.10703352987814817"><ele>2.3333333333333335</ele><time>2026-04-05T13:52:07Z</time></trkpt><trkpt lat="49.28937090625823" lon="-0.10700070386116155"><ele>2.0</ele><time>2026-04-05T13:52:09Z</time></trkpt><trkpt lat="49.28945525312858" lon="-0.10696610308772228"><ele>1.6666666666666665</ele><time>2026-04-05T13:52:11Z</time></trkpt><trkpt lat="49.28953067010772" lon="-0.10696148760227579"><ele>1.3333333333333333</ele><time>2026-04-05T13:52:13Z</time></trkpt><trkpt lat="49.289613704491664" lon="-0.10696203964373027"><ele>1.0</ele><time>2026-04-05T13:52:15Z</time></trkpt><trkpt lat="49.28970094482451" lon="-0.10698705905634627"><ele>1.1666666666666665</ele><time>2026-04-05T13:52:17Z</time></trkpt><trkpt lat="49.2897828366459" lon="-0.1070036507174458"><ele>1.3333333333333333</ele><time>2026-04-05T13:52:19Z</time></trkpt><trkpt lat="49.28986297759077" lon="-0.1070342156509674"><ele>1.5</ele><time>2026-04-05T13:52:21Z</time></trkpt><trkpt lat="49.28994363264098" lon="-0.10706496251189483"><ele>1.6666666666666665</ele><time>2026-04-05T13:52:22.999Z</time></trkpt><trkpt lat="49.29002775033213" lon="-0.10709826091116996"><ele>1.8333333333333333</ele><time>2026-04-05T13:52:24.999Z</time></trkpt><trkpt lat="49.29009472915029" lon="-0.1071128023887918"><ele>2.0</ele><time>2026-04-05T13:52:26.999Z</time></trkpt><trkpt lat="49.29016565599574" lon="-0.10713730949000999"><ele>1.9999999999999998</ele><time>2026-04-05T13:52:28.999Z</time></trkpt><trkpt lat="49.29024585743979" lon="-0.10716758968510937"><ele>2.0</ele><time>2026-04-05T13:52:30.999Z</time></trkpt><trkpt lat="49.290317044911426" lon="-0.10717447570768442"><ele>2.0</ele><time>2026-04-05T13:52:32.999Z</time></trkpt><trkpt lat="49.29040708019859" lon="-0.10720492275174631"><ele>2.0</ele><time>2026-04-05T13:52:34.999Z</time></trkpt><trkpt lat="49.2904864790188" lon="-0.10722063233666097"><ele>1.9999999999999998</ele><time>2026-04-05T13:52:36.999Z</time></trkpt><trkpt lat="49.29057152672532" lon="-0.10724365463690831"><ele>2.0</ele><time>2026-04-05T13:52:38.999Z</time></trkpt><trkpt lat="49.290661569739456" lon="-0.10725307246150331"><ele>1.6</ele><time>2026-04-05T13:52:40.999Z</time></trkpt><trkpt lat="49.290730296483325" lon="-0.10725697714709446"><ele>1.2000000000000002</ele><time>2026-04-05T13:52:42.999Z</time></trkpt><trkpt lat="49.29079852307162" lon="-0.10726375137483539"><ele>0.8</ele><time>2026-04-05T13:52:44.999Z</time></trkpt><trkpt lat="49.29088372282834" lon="-0.10727163616186858"><ele>0.4</ele><time>2026-04-05T13:52:46.999Z</time></trkpt><trkpt lat="49.29103885781613" lon="-0.10727007161607306"><ele>0.0</ele><time>2026-04-05T13:52:50.999Z</time></trkpt><trkpt lat="49.29112027785374" lon="-0.10725888985809331"><ele>0.0</ele><time>2026-04-05T13:52:52.999Z</time></trkpt><trkpt lat="49.29130987479353" lon="-0.10725655346526361"><ele>0.0</ele><time>2026-04-05T13:52:58Z</time></trkpt><trkpt lat="49.29148062336036" lon="-0.10725554617600272"><ele>0.0</ele><time>2026-04-05T13:53:02Z</time></trkpt><trkpt lat="49.291561904207796" lon="-0.1072586677602783"><ele>0.0</ele><time>2026-04-05T13:53:04Z</time></trkpt><trkpt lat="49.2917617976336" lon="-0.10724856337483142"><ele>0.25</ele><time>2026-04-05T13:53:09Z</time></trkpt><trkpt lat="49.29201715148136" lon="-0.10723061054715281"><ele>0.5</ele><time>2026-04-05T13:53:16Z</time></trkpt><trkpt lat="49.29208990145557" lon="-0.10723020802844727"><ele>0.75</ele><time>2026-04-05T13:53:18Z</time></trkpt><trkpt lat="49.29216024861991" lon="-0.10721535939757504"><ele>1.0</ele><time>2026-04-05T13:53:20Z</time></trkpt><trkpt lat="49.29223136813053" lon="-0.10721964444472536"><ele>0.9999999999999999</ele><time>2026-04-05T13:53:22Z</time></trkpt><trkpt lat="49.29230832689459" lon="-0.10722926267508036"><ele>1.0</ele><time>2026-04-05T13:53:24Z</time></trkpt><trkpt lat="49.29239083699853" lon="-0.10720590758831534"><ele>1.0</ele><time>2026-04-05T13:53:26Z</time></trkpt><trkpt lat="49.292468492263026" lon="-0.1071773251616107"><ele>1.0</ele><time>2026-04-05T13:53:28Z</time></trkpt><trkpt lat="49.292560601694646" lon="-0.10715300750678837"><ele>0.9999999999999999</ele><time>2026-04-05T13:53:30Z</time></trkpt><trkpt lat="49.29262854553956" lon="-0.10712300295962247"><ele>1.0</ele><time>2026-04-05T13:53:32Z</time></trkpt><trkpt lat="49.2927113433707" lon="-0.10708485801496288"><ele>0.9999999999999999</ele><time>2026-04-05T13:53:34Z</time></trkpt><trkpt lat="49.29277934584226" lon="-0.10706455655239365"><ele>1.0</ele><time>2026-04-05T13:53:36Z</time></trkpt><trkpt lat="49.292861507924776" lon="-0.10702960654472468"><ele>1.0</ele><time>2026-04-05T13:53:38Z</time></trkpt><trkpt lat="49.29295028970451" lon="-0.10699350945039776"><ele>1.0</ele><time>2026-04-05T13:53:40Z</time></trkpt><trkpt lat="49.29302878762316" lon="-0.10694768760425417"><ele>0.9999999999999999</ele><time>2026-04-05T13:53:42Z</time></trkpt><trkpt lat="49.29310085771534" lon="-0.10691275255394556"><ele>1.0</ele><time>2026-04-05T13:53:44Z</time></trkpt><trkpt lat="49.29316986600336" lon="-0.10687835066822578"><ele>1.5</ele><time>2026-04-05T13:53:46Z</time></trkpt><trkpt lat="49.29325128128597" lon="-0.10684873914980689"><ele>2.0</ele><time>2026-04-05T13:53:48Z</time></trkpt><trkpt lat="49.293317336424096" lon="-0.10681975796699882"><ele>2.5</ele><time>2026-04-05T13:53:50Z</time></trkpt><trkpt lat="49.29339318097082" lon="-0.10678498608693167"><ele>3.0</ele><time>2026-04-05T13:53:52Z</time></trkpt><trkpt lat="49.29346960903672" lon="-0.10675479064186186"><ele>3.4999999999999996</ele><time>2026-04-05T13:53:54Z</time></trkpt><trkpt lat="49.293539974455804" lon="-0.10672005225584084"><ele>4.0</ele><time>2026-04-05T13:53:56Z</time></trkpt><trkpt lat="49.293617414151605" lon="-0.10670536227312392"><ele>4.0</ele><time>2026-04-05T13:53:58Z</time></trkpt><trkpt lat="49.29367791190881" lon="-0.10667102055962371"><ele>3.9999999999999996</ele><time>2026-04-05T13:54:00Z</time></trkpt><trkpt lat="49.293745939346664" lon="-0.10662978384480554"><ele>4.0</ele><time>2026-04-05T13:54:02Z</time></trkpt><trkpt lat="49.2938074942156" lon="-0.10659664751725074"><ele>4.0</ele><time>2026-04-05T13:54:04Z</time></trkpt><trkpt lat="49.29388210261847" lon="-0.1065681642348163"><ele>3.9999999999999996</ele><time>2026-04-05T13:54:06Z</time></trkpt><trkpt lat="49.29395575706921" lon="-0.10651789709560826"><ele>4.0</ele><time>2026-04-05T13:54:08Z</time></trkpt><trkpt lat="49.294023093397314" lon="-0.10649145258786336"><ele>4.0</ele><time>2026-04-05T13:54:10Z</time></trkpt><trkpt lat="49.29409288372895" lon="-0.10648190015431004"><ele>4.166666666666666</ele><time>2026-04-05T13:54:12Z</time></trkpt><trkpt lat="49.29416938263848" lon="-0.10643183469176473"><ele>4.333333333333333</ele><time>2026-04-05T13:54:15Z</time></trkpt><trkpt lat="49.29423338687104" lon="-0.10637586123726339"><ele>4.5</ele><time>2026-04-05T13:54:18Z</time></trkpt><trkpt lat="49.29431649587664" lon="-0.10634420290900391"><ele>4.666666666666667</ele><time>2026-04-05T13:54:21Z</time></trkpt><trkpt lat="49.294393438055906" lon="-0.10633763138727412"><ele>4.833333333333334</ele><time>2026-04-05T13:54:24Z</time></trkpt><trkpt lat="49.29445099543052" lon="-0.10626873392319054"><ele>5.0</ele><time>2026-04-05T13:54:26.999Z</time></trkpt><trkpt lat="49.29452127808514" lon="-0.10620998582559457"><ele>5.0</ele><time>2026-04-05T13:54:29.999Z</time></trkpt><trkpt lat="49.294649122619106" lon="-0.10621880884683682"><ele>5.0</ele><time>2026-04-05T13:54:33.999Z</time></trkpt><trkpt lat="49.29472905670286" lon="-0.10623499119453648"><ele>5.0</ele><time>2026-04-05T13:54:35.999Z</time></trkpt><trkpt lat="49.294791740088804" lon="-0.10622041056835972"><ele>5.0</ele><time>2026-04-05T13:54:37.999Z</time></trkpt><trkpt lat="49.29487363900867" lon="-0.10621310447490415"><ele>5.0</ele><time>2026-04-05T13:54:39.999Z</time></trkpt><trkpt lat="49.29494906916851" lon="-0.1061862623425038"><ele>5.0</ele><time>2026-04-05T13:54:41.999Z</time></trkpt><trkpt lat="49.295010439105624" lon="-0.10621548352496564"><ele>5.666666666666667</ele><time>2026-04-05T13:54:44.999Z</time></trkpt><trkpt lat="49.29502928052232" lon="-0.10634069274683497"><ele>6.333333333333334</ele><time>2026-04-05T13:54:46.999Z</time></trkpt><trkpt lat="49.29501868272066" lon="-0.10644871612106421"><ele>7.0</ele><time>2026-04-05T13:54:48.999Z</time></trkpt><trkpt lat="49.294990972257146" lon="-0.10655604341821907"><ele>7.666666666666667</ele><time>2026-04-05T13:54:50.999Z</time></trkpt><trkpt lat="49.294971847722735" lon="-0.10667361091118485"><ele>8.333333333333334</ele><time>2026-04-05T13:54:52.999Z</time></trkpt><trkpt lat="49.29494764039293" lon="-0.10679332307567063"><ele>9.0</ele><time>2026-04-05T13:54:54.999Z</time></trkpt><trkpt lat="49.29490881133305" lon="-0.10691493783514991"><ele>9.0</ele><time>2026-04-05T13:54:56.999Z</time></trkpt><trkpt lat="49.294893993441114" lon="-0.10701153619198317"><ele>9.0</ele><time>2026-04-05T13:54:59.999Z</time></trkpt><trkpt lat="49.29488137654795" lon="-0.1071506740130739"><ele>9.0</ele><time>2026-04-05T13:55:02Z</time></trkpt><trkpt lat="49.2948381936561" lon="-0.10727692680838305"><ele>9.0</ele><time>2026-04-05T13:55:05Z</time></trkpt><trkpt lat="49.29481214737016" lon="-0.10739396438569611"><ele>9.0</ele><time>2026-04-05T13:55:08Z</time></trkpt><trkpt lat="49.29480438013066" lon="-0.10752476029065268"><ele>9.0</ele><time>2026-04-05T13:55:11Z</time></trkpt><trkpt lat="49.29477006100624" lon="-0.10763548049313235"><ele>9.333333333333334</ele><time>2026-04-05T13:55:14Z</time></trkpt><trkpt lat="49.29477117328096" lon="-0.10777096201894744"><ele>9.666666666666666</ele><time>2026-04-05T13:55:16Z</time></trkpt><trkpt lat="49.294744932619885" lon="-0.1078827796218931"><ele>10.0</ele><time>2026-04-05T13:55:19Z</time></trkpt><trkpt lat="49.294692481157725" lon="-0.10797464142048098"><ele>10.333333333333332</ele><time>2026-04-05T13:55:21Z</time></trkpt><trkpt lat="49.29464257687052" lon="-0.10811279550325875"><ele>10.666666666666666</ele><time>2026-04-05T13:55:23Z</time></trkpt><trkpt lat="49.294638812988104" lon="-0.10822019746989162"><ele>11.0</ele><time>2026-04-05T13:55:26Z</time></trkpt><trkpt lat="49.29461232531064" lon="-0.10834028712424006"><ele>10.166666666666666</ele><time>2026-04-05T13:55:28Z</time></trkpt><trkpt lat="49.29460318559806" lon="-0.10845799316158274"><ele>9.333333333333332</ele><time>2026-04-05T13:55:30Z</time></trkpt><trkpt lat="49.29454909018548" lon="-0.10856375456983491"><ele>8.5</ele><time>2026-04-05T13:55:32Z</time></trkpt><trkpt lat="49.29451641647793" lon="-0.10866889158032182"><ele>7.666666666666666</ele><time>2026-04-05T13:55:34Z</time></trkpt><trkpt lat="49.29448812754724" lon="-0.10885353983656355"><ele>6.833333333333333</ele><time>2026-04-05T13:55:36Z</time></trkpt><trkpt lat="49.2944672648806" lon="-0.10894678419719207"><ele>6.0</ele><time>2026-04-05T13:55:37Z</time></trkpt><trkpt lat="49.29445897253223" lon="-0.10905658038933641"><ele>6.199999999999999</ele><time>2026-04-05T13:55:38Z</time></trkpt><trkpt lat="49.29442465333033" lon="-0.10914618371317623"><ele>6.3999999999999995</ele><time>2026-04-05T13:55:39Z</time></trkpt><trkpt lat="49.29440165960206" lon="-0.10925011616294096"><ele>6.6</ele><time>2026-04-05T13:55:40Z</time></trkpt><trkpt lat="49.294362592616935" lon="-0.10941750608328153"><ele>6.8</ele><time>2026-04-05T13:55:42Z</time></trkpt><trkpt lat="49.2943081259821" lon="-0.10957828490647538"><ele>7.0</ele><time>2026-04-05T13:55:44Z</time></trkpt><trkpt lat="49.29427097923756" lon="-0.10972332635350082"><ele>7.000000000000001</ele><time>2026-04-05T13:55:46Z</time></trkpt><trkpt lat="49.294243854261474" lon="-0.10981923987714666"><ele>7.0</ele><time>2026-04-05T13:55:49Z</time></trkpt><trkpt lat="49.294258055482345" lon="-0.10992757597467809"><ele>7.0</ele><time>2026-04-05T13:55:51Z</time></trkpt><trkpt lat="49.294237105101644" lon="-0.11004285452356144"><ele>7.0</ele><time>2026-04-05T13:55:54Z</time></trkpt><trkpt lat="49.29425323807352" lon="-0.11019675257438308"><ele>7.000000000000001</ele><time>2026-04-05T13:55:56Z</time></trkpt><trkpt lat="49.29420211296084" lon="-0.11025595036440436"><ele>7.0</ele><time>2026-04-05T13:55:58Z</time></trkpt><trkpt lat="49.29419489978409" lon="-0.1103636268340787"><ele>7.000000000000001</ele><time>2026-04-05T13:56:00Z</time></trkpt><trkpt lat="49.29419507603966" lon="-0.11047207195296603"><ele>7.0</ele><time>2026-04-05T13:56:02Z</time></trkpt><trkpt lat="49.294171992097894" lon="-0.11060046857091065"><ele>7.0</ele><time>2026-04-05T13:56:04Z</time></trkpt><trkpt lat="49.2941470376527" lon="-0.11070186323962354"><ele>7.0</ele><time>2026-04-05T13:56:06Z</time></trkpt><trkpt lat="49.29413864159488" lon="-0.11080087220801887"><ele>7.000000000000001</ele><time>2026-04-05T13:56:08Z</time></trkpt><trkpt lat="49.29411478829401" lon="-0.11093240220219817"><ele>7.0</ele><time>2026-04-05T13:56:11Z</time></trkpt><trkpt lat="49.29407231971801" lon="-0.11103688384337129"><ele>7.166666666666667</ele><time>2026-04-05T13:56:13Z</time></trkpt><trkpt lat="49.2940582772817" lon="-0.11114330543184864"><ele>7.333333333333334</ele><time>2026-04-05T13:56:15Z</time></trkpt><trkpt lat="49.29404342756737" lon="-0.11124258043400644"><ele>7.5</ele><time>2026-04-05T13:56:17Z</time></trkpt><trkpt lat="49.29397973695275" lon="-0.11134909965924115"><ele>7.666666666666666</ele><time>2026-04-05T13:56:19Z</time></trkpt><trkpt lat="49.29394374681301" lon="-0.11146034401383884"><ele>7.833333333333333</ele><time>2026-04-05T13:56:21Z</time></trkpt><trkpt lat="49.29392400702296" lon="-0.11157083330146508"><ele>8.0</ele><time>2026-04-05T13:56:22Z</time></trkpt><trkpt lat="49.29390834163264" lon="-0.1116749936711331"><ele>7.666666666666666</ele><time>2026-04-05T13:56:23Z</time></trkpt><trkpt lat="49.293896148579655" lon="-0.11179000414250234"><ele>7.333333333333333</ele><time>2026-04-05T13:56:24Z</time></trkpt><trkpt lat="49.293862507666" lon="-0.11188328990154099"><ele>7.0</ele><time>2026-04-05T13:56:25Z</time></trkpt><trkpt lat="49.293818732461425" lon="-0.11204991971449127"><ele>6.666666666666666</ele><time>2026-04-05T13:56:27Z</time></trkpt><trkpt lat="49.29383373415124" lon="-0.11217547391400312"><ele>6.333333333333333</ele><time>2026-04-05T13:56:30Z</time></trkpt><trkpt lat="49.293779679449415" lon="-0.11225540970027759"><ele>6.0</ele><time>2026-04-05T13:56:32Z</time></trkpt><trkpt lat="49.293720424613284" lon="-0.11238975575201676"><ele>6.0</ele><time>2026-04-05T13:56:33Z</time></trkpt><trkpt lat="49.29368328101002" lon="-0.11248529228855815"><ele>6.0</ele><time>2026-04-05T13:56:34Z</time></trkpt><trkpt lat="49.293665337337266" lon="-0.1125784150685207"><ele>6.0</ele><time>2026-04-05T13:56:35Z</time></trkpt><trkpt lat="49.29362262415542" lon="-0.11274394676188541"><ele>6.0</ele><time>2026-04-05T13:56:37.999Z</time></trkpt><trkpt lat="49.29359352955106" lon="-0.11290015778258936"><ele>6.0</ele><time>2026-04-05T13:56:39.999Z</time></trkpt><trkpt lat="49.29361309172091" lon="-0.11299891689298408"><ele>6.0</ele><time>2026-04-05T13:56:43.999Z</time></trkpt><trkpt lat="49.29361131074995" lon="-0.11313789170071319"><ele>6.0</ele><time>2026-04-05T13:56:45.999Z</time></trkpt><trkpt lat="49.29354033552892" lon="-0.11328349794256963"><ele>6.0</ele><time>2026-04-05T13:56:47.999Z</time></trkpt><trkpt lat="49.293530512059185" lon="-0.11340990103821447"><ele>6.0</ele><time>2026-04-05T13:56:49.999Z</time></trkpt><trkpt lat="49.29348334447955" lon="-0.11349617920998582"><ele>6.0</ele><time>2026-04-05T13:56:51.999Z</time></trkpt><trkpt lat="49.29343393938167" lon="-0.11363378450017585"><ele>6.0</ele><time>2026-04-05T13:56:53.999Z</time></trkpt><trkpt lat="49.29338189977141" lon="-0.11374817005547556"><ele>5.999999999999999</ele><time>2026-04-05T13:56:55.999Z</time></trkpt><trkpt lat="49.293368326706634" lon="-0.11384834855218008"><ele>6.0</ele><time>2026-04-05T13:56:56.999Z</time></trkpt><trkpt lat="49.29335132935454" lon="-0.11396286285898054"><ele>6.0</ele><time>2026-04-05T13:56:58.999Z</time></trkpt><trkpt lat="49.29330282959129" lon="-0.11407250757730744"><ele>6.0</ele><time>2026-04-05T13:57:00.999Z</time></trkpt><trkpt lat="49.29328858813001" lon="-0.11417670037771979"><ele>6.0</ele><time>2026-04-05T13:57:03.999Z</time></trkpt><trkpt lat="49.293264215304724" lon="-0.11427038882979391"><ele>5.999999999999999</ele><time>2026-04-05T13:57:05.999Z</time></trkpt><trkpt lat="49.29324723790995" lon="-0.11436945672670934"><ele>6.0</ele><time>2026-04-05T13:57:09Z</time></trkpt><trkpt lat="49.29323824784578" lon="-0.11447134092882146"><ele>6.333333333333333</ele><time>2026-04-05T13:57:12Z</time></trkpt><trkpt lat="49.29322588779869" lon="-0.1145764362067849"><ele>6.666666666666666</ele><time>2026-04-05T13:57:14Z</time></trkpt><trkpt lat="49.293208643147956" lon="-0.11469075394727686"><ele>7.0</ele><time>2026-04-05T13:57:17Z</time></trkpt><trkpt lat="49.29319515292371" lon="-0.11482479187410896"><ele>7.333333333333333</ele><time>2026-04-05T13:57:20Z</time></trkpt><trkpt lat="49.293194615035446" lon="-0.1149779148974498"><ele>7.666666666666666</ele><time>2026-04-05T13:57:23Z</time></trkpt><trkpt lat="49.293200321838206" lon="-0.1150837000774245"><ele>8.0</ele><time>2026-04-05T13:57:29Z</time></trkpt><trkpt lat="49.29312488947948" lon="-0.11510503459543733"><ele>7.833333333333333</ele><time>2026-04-05T13:57:47Z</time></trkpt><trkpt lat="49.29305652508974" lon="-0.11514972186773675"><ele>7.666666666666666</ele><time>2026-04-05T13:57:50Z</time></trkpt><trkpt lat="49.29297793167397" lon="-0.11519035113034055"><ele>7.5</ele><time>2026-04-05T13:57:53Z</time></trkpt><trkpt lat="49.29290167342266" lon="-0.11523320156202747"><ele>7.333333333333334</ele><time>2026-04-05T13:57:55Z</time></trkpt><trkpt lat="49.29282607288948" lon="-0.11526329883671513"><ele>7.166666666666667</ele><time>2026-04-05T13:57:57Z</time></trkpt><trkpt lat="49.292754472629966" lon="-0.11525669705406731"><ele>7.0</ele><time>2026-04-05T13:57:59Z</time></trkpt><trkpt lat="49.292657363516504" lon="-0.1152637637219542"><ele>7.0</ele><time>2026-04-05T13:58:02Z</time></trkpt><trkpt lat="49.29258691278196" lon="-0.11525821130577218"><ele>7.0</ele><time>2026-04-05T13:58:05Z</time></trkpt></trkseg></trk></gpx>